Observation data for Dell City 1N on 04/16/2021      Previous  Date  Next       Current Mesonet Observations  Soil Data  Daily Summary Page  Observations in Plain Language
KDC1 160500Z 25009KT 22/M04 A2986 RMK A01 T02241044  RH  016%=      5-min Rain = 0
KDC1 160501Z 26011KT 22/M04 A2986 RMK A01 T02241043  RH  016%=      5-min Rain = 0
KDC1 160502Z 26010KT 22/M04 A2986 RMK A01 T02241044  RH  016%=      5-min Rain = 0
KDC1 160503Z 26009KT 22/M04 A2986 RMK A01 T02241042  RH  017%=      5-min Rain = 0
KDC1 160504Z 26009KT 22/M04 A2986 RMK A01 T02231041  RH  017%=      5-min Rain = 0
KDC1 160505Z 26009KT 22/M04 A2986 RMK A01 T02221040  RH  017%=      5-min Rain = 0
KDC1 160506Z 26009KT 22/M04 A2986 RMK A01 T02211039  RH  017%=      5-min Rain = 0
KDC1 160507Z 26009KT 22/M04 A2986 RMK A01 T02191039  RH  017%=      5-min Rain = 0
KDC1 160508Z 27008KT 22/M04 A2986 RMK A01 T02181039  RH  018%=      5-min Rain = 0
KDC1 160509Z 27008KT 22/M04 A2986 RMK A01 T02171040  RH  018%=      5-min Rain = 0
KDC1 160510Z 26008KT 22/M04 A2986 RMK A01 T02161040  RH  018%=      5-min Rain = 0
KDC1 160511Z 27007KT 22/M04 A2986 RMK A01 T02151041  RH  018%=      5-min Rain = 0
KDC1 160512Z 26008KT 21/M04 A2986 RMK A01 T02141041  RH  018%=      5-min Rain = 0
KDC1 160513Z 26007KT 21/M04 A2986 RMK A01 T02131041  RH  018%=      5-min Rain = 0
KDC1 160514Z 26008KT 21/M04 A2986 RMK A01 T02131041  RH  018%=      5-min Rain = 0
KDC1 160515Z 26008KT 21/M04 A2986 RMK A01 T02131043  RH  018%=      5-min Rain = 0
KDC1 160516Z 26008KT 21/M04 A2986 RMK A01 T02141042  RH  018%=      5-min Rain = 0
KDC1 160517Z 27008KT 21/M04 A2986 RMK A01 T02141039  RH  018%=      5-min Rain = 0
KDC1 160518Z 27007KT 21/M04 A2986 RMK A01 T02131036  RH  019%=      5-min Rain = 0
KDC1 160519Z 27008KT 21/M04 A2986 RMK A01 T02111036  RH  019%=      5-min Rain = 0
KDC1 160520Z 27008KT 21/M04 A2986 RMK A01 T02101038  RH  019%=      5-min Rain = 0
KDC1 160521Z 27010KT 21/M04 A2986 RMK A01 T02091041  RH  018%=      5-min Rain = 0
KDC1 160522Z 27012KT 21/M05 A2986 RMK A01 T02111048  RH  017%=      5-min Rain = 0
KDC1 160523Z 28012KT 22/M05 A2986 RMK A01 T02151047  RH  017%=      5-min Rain = 0
KDC1 160524Z 28012KT 22/M04 A2986 RMK A01 T02161043  RH  017%=      5-min Rain = 0
KDC1 160525Z 27012KT 22/M04 A2986 RMK A01 T02151044  RH  017%=      5-min Rain = 0
KDC1 160526Z 27012KT 22/M05 A2986 RMK A01 T02151048  RH  017%=      5-min Rain = 0
KDC1 160527Z 27012KT 22/M05 A2986 RMK A01 T02171045  RH  017%=      5-min Rain = 0
KDC1 160528Z 27012KT 22/M05 A2986 RMK A01 T02161047  RH  017%=      5-min Rain = 0
KDC1 160529Z 26011KT 22/M05 A2986 RMK A01 T02161049  RH  016%=      5-min Rain = 0
KDC1 160530Z 27013KT 22/M05 A2986 RMK A01 T02161051  RH  016%=      5-min Rain = 0
KDC1 160531Z 27012KT 22/M05 A2986 RMK A01 T02161053  RH  016%=      5-min Rain = 0
KDC1 160532Z 27013KT 22/M05 A2986 RMK A01 T02171054  RH  016%=      5-min Rain = 0
KDC1 160533Z 27014KT 22/M05 A2986 RMK A01 T02181053  RH  016%=      5-min Rain = 0
KDC1 160534Z 27013KT 22/M05 A2986 RMK A01 T02181051  RH  016%=      5-min Rain = 0
KDC1 160535Z 27011KT 22/M05 A2986 RMK A01 T02181049  RH  016%=      5-min Rain = 0
KDC1 160536Z 27012KT 22/M05 A2986 RMK A01 T02161048  RH  017%=      5-min Rain = 0
KDC1 160537Z 27012KT 22/M05 A2986 RMK A01 T02151046  RH  017%=      5-min Rain = 0
KDC1 160538Z 27012KT 21/M04 A2986 RMK A01 T02131043  RH  018%=      5-min Rain = 0
KDC1 160539Z 27011KT 21/M04 A2986 RMK A01 T02111042  RH  018%=      5-min Rain = 0
KDC1 160540Z 27011KT 21/M04 A2986 RMK A01 T02111043  RH  018%=      5-min Rain = 0
KDC1 160541Z 27011KT 21/M04 A2986 RMK A01 T02101044  RH  018%=      5-min Rain = 0
KDC1 160542Z 27011KT 21/M05 A2986 RMK A01 T02101045  RH  018%=      5-min Rain = 0
KDC1 160543Z 27010KT 21/M05 A2986 RMK A01 T02091046  RH  018%=      5-min Rain = 0
KDC1 160544Z 27010KT 21/M05 A2986 RMK A01 T02091048  RH  017%=      5-min Rain = 0
KDC1 160545Z 26010KT 21/M05 A2986 RMK A01 T02081051  RH  017%=      5-min Rain = 0
KDC1 160546Z 26010KT 21/M05 A2986 RMK A01 T02081052  RH  017%=      5-min Rain = 0
KDC1 160547Z 26010KT 21/M05 A2986 RMK A01 T02081053  RH  017%=      5-min Rain = 0
KDC1 160548Z 27009KT 21/M05 A2986 RMK A01 T02091053  RH  017%=      5-min Rain = 0
KDC1 160549Z 27009KT 21/M05 A2986 RMK A01 T02091051  RH  017%=      5-min Rain = 0
KDC1 160550Z 27010KT 21/M05 A2986 RMK A01 T02081051  RH  017%=      5-min Rain = 0
KDC1 160551Z 27011KT 21/M05 A2986 RMK A01 T02071051  RH  017%=      5-min Rain = 0
KDC1 160552Z 27010KT 21/M05 A2986 RMK A01 T02061047  RH  018%=      5-min Rain = 0
KDC1 160553Z 27010KT 21/M04 A2986 RMK A01 T02061044  RH  018%=      5-min Rain = 0
KDC1 160554Z 27010KT 20/M04 A2986 RMK A01 T02041041  RH  019%=      5-min Rain = 0
KDC1 160555Z 27010KT 20/M04 A2986 RMK A01 T02031041  RH  019%=      5-min Rain = 0
KDC1 160556Z 27010KT 20/M04 A2986 RMK A01 T02021039  RH  019%=      5-min Rain = 0
KDC1 160557Z 27010KT 20/M04 A2986 RMK A01 T02011041  RH  019%=      5-min Rain = 0
KDC1 160558Z 28011KT 20/M04 A2986 RMK A01 T02011044  RH  019%=      5-min Rain = 0
KDC1 160559Z 28011KT 20/M04 A2986 RMK A01 T02011042  RH  019%=      5-min Rain = 0
KDC1 160600Z 27011KT 20/M04 A2986 RMK A01 T02011040  RH  019%=      5-min Rain = 0
KDC1 160601Z 28010KT 20/M04 A2986 RMK A01 T02001042  RH  019%=      5-min Rain = 0
KDC1 160602Z 28010KT 20/M04 A2986 RMK A01 T02001039  RH  020%=      5-min Rain = 0
KDC1 160603Z 28010KT 20/M04 A2986 RMK A01 T01991039  RH  020%=      5-min Rain = 0
KDC1 160604Z 28010KT 20/M04 A2986 RMK A01 T01981038  RH  020%=      5-min Rain = 0
KDC1 160605Z 28011KT 20/M04 A2986 RMK A01 T01961037  RH  020%=      5-min Rain = 0
KDC1 160606Z 28011KT 20/M04 A2986 RMK A01 T01961039  RH  020%=      5-min Rain = 0
KDC1 160607Z 28011KT 20/M04 A2986 RMK A01 T01951041  RH  020%=      5-min Rain = 0
KDC1 160608Z 28011KT 19/M04 A2986 RMK A01 T01941040  RH  020%=      5-min Rain = 0
KDC1 160609Z 28011KT 19/M04 A2986 RMK A01 T01931041  RH  020%=      5-min Rain = 0
KDC1 160610Z 28011KT 19/M04 A2986 RMK A01 T01931041  RH  020%=      5-min Rain = 0
KDC1 160611Z 28011KT 19/M04 A2986 RMK A01 T01911041  RH  020%=      5-min Rain = 0
KDC1 160612Z 28011KT 19/M04 A2986 RMK A01 T01901039  RH  021%=      5-min Rain = 0
KDC1 160613Z 29012KT 19/M04 A2986 RMK A01 T01881039  RH  021%=      5-min Rain = 0
KDC1 160614Z 29012KT 19/M05 A2986 RMK A01 T01871047  RH  020%=      5-min Rain = 0
KDC1 160615Z 29012KT 19/M05 A2986 RMK A01 T01881050  RH  019%=      5-min Rain = 0
KDC1 160616Z 29012KT 19/M05 A2986 RMK A01 T01881052  RH  019%=      5-min Rain = 0
KDC1 160617Z 29012KT 19/M05 A2986 RMK A01 T01881053  RH  019%=      5-min Rain = 0
KDC1 160618Z 28012KT 19/M06 A2986 RMK A01 T01881055  RH  019%=      5-min Rain = 0
KDC1 160619Z 28012KT 19/M06 A2986 RMK A01 T01891060  RH  018%=      5-min Rain = 0
KDC1 160620Z 28013KT 19/M06 A2986 RMK A01 T01901064  RH  017%=      5-min Rain = 0
KDC1 160621Z 28015KT 19/M07 A2986 RMK A01 T01931070  RH  016%=      5-min Rain = 0
KDC1 160622Z 28015KT 20/M07 A2986 RMK A01 T01971074  RH  015%=      5-min Rain = 0
KDC1 160623Z 28016KT 20/M08 A2986 RMK A01 T02001077  RH  015%=      5-min Rain = 0
KDC1 160624Z 29017KT 20/M08 A2986 RMK A01 T02031082  RH  014%=      5-min Rain = 0
KDC1 160625Z 29014KT 21/M08 A2986 RMK A01 T02051081  RH  014%=      5-min Rain = 0
KDC1 160626Z 29014KT 21/M08 A2986 RMK A01 T02051076  RH  014%=      5-min Rain = 0
KDC1 160627Z 28013KT 21/M08 A2986 RMK A01 T02051076  RH  014%=      5-min Rain = 0
KDC1 160628Z 28014KT 20/M08 A2986 RMK A01 T02041075  RH  015%=      5-min Rain = 0
KDC1 160629Z 29013KT 20/M08 A2986 RMK A01 T02041077  RH  014%=      5-min Rain = 0
KDC1 160630Z 29014KT 20/M08 A2986 RMK A01 T02041076  RH  014%=      5-min Rain = 0
KDC1 160631Z 29013KT 21/M08 A2986 RMK A01 T02051082  RH  014%=      5-min Rain = 0
KDC1 160632Z 29012KT 21/M08 A2986 RMK A01 T02051077  RH  014%=      5-min Rain = 0
KDC1 160633Z 29013KT 20/M08 A2986 RMK A01 T02041076  RH  015%=      5-min Rain = 0
KDC1 160634Z 28016KT 20/M08 A2986 RMK A01 T02031079  RH  014%=      5-min Rain = 0
KDC1 160635Z 28017KT 21/M09 A2986 RMK A01 T02051088  RH  013%=      5-min Rain = 0
KDC1 160636Z 29020KT 21/M09 A2986 RMK A01 T02091093  RH  012%=      5-min Rain = 0
KDC1 160637Z 29018KT 21/M10 A2986 RMK A01 T02131098  RH  012%=      5-min Rain = 0
KDC1 160638Z 28015KT 22/M09 A2986 RMK A01 T02151089  RH  012%=      5-min Rain = 0
KDC1 160639Z 28015KT 21/M09 A2986 RMK A01 T02141086  RH  013%=      5-min Rain = 0
KDC1 160640Z 28014KT 21/M09 A2986 RMK A01 T02121085  RH  013%=      5-min Rain = 0
KDC1 160641Z 28014KT 21/M08 A2986 RMK A01 T02101082  RH  013%=      5-min Rain = 0
KDC1 160642Z 28015KT 21/M08 A2986 RMK A01 T02081082  RH  013%=      5-min Rain = 0
KDC1 160643Z 28013KT 21/M08 A2986 RMK A01 T02071083  RH  013%=      5-min Rain = 0
KDC1 160644Z 28013KT 21/M08 A2986 RMK A01 T02061079  RH  014%=      5-min Rain = 0
KDC1 160645Z 28012KT 21/M08 A2986 RMK A01 T02051080  RH  014%=      5-min Rain = 0
KDC1 160646Z 28012KT 20/M08 A2986 RMK A01 T02041080  RH  014%=      5-min Rain = 0
KDC1 160647Z 28013KT 20/M08 A2986 RMK A01 T02041082  RH  014%=      5-min Rain = 0
KDC1 160648Z 28016KT 20/M09 A2986 RMK A01 T02041087  RH  013%=      5-min Rain = 0
KDC1 160649Z 28015KT 21/M09 A2986 RMK A01 T02061090  RH  013%=      5-min Rain = 0
KDC1 160650Z 28015KT 21/M09 A2986 RMK A01 T02081090  RH  013%=      5-min Rain = 0
KDC1 160651Z 27015KT 21/M09 A2986 RMK A01 T02091090  RH  013%=      5-min Rain = 0
KDC1 160652Z 27015KT 21/M09 A2986 RMK A01 T02091087  RH  013%=      5-min Rain = 0
KDC1 160653Z 27015KT 21/M09 A2986 RMK A01 T02091085  RH  013%=      5-min Rain = 0
KDC1 160654Z 28014KT 21/M09 A2986 RMK A01 T02081086  RH  013%=      5-min Rain = 0
KDC1 160655Z 28014KT 21/M09 A2986 RMK A01 T02081086  RH  013%=      5-min Rain = 0
KDC1 160656Z 28013KT 21/M09 A2986 RMK A01 T02071088  RH  013%=      5-min Rain = 0
KDC1 160657Z 27014KT 21/M09 A2986 RMK A01 T02071085  RH  013%=      5-min Rain = 0
KDC1 160658Z 27016KT 21/M09 A2986 RMK A01 T02061088  RH  013%=      5-min Rain = 0
KDC1 160659Z 27015KT 21/M09 A2986 RMK A01 T02081091  RH  013%=      5-min Rain = 0
KDC1 160700Z 27015KT 21/M09 A2986 RMK A01 T02091087  RH  013%=      5-min Rain = 0
KDC1 160701Z 27015KT 21/M09 A2986 RMK A01 T02081087  RH  013%=      5-min Rain = 0
KDC1 160702Z 26013KT 21/M09 A2986 RMK A01 T02071088  RH  013%=      5-min Rain = 0
KDC1 160703Z 26011KT 21/M09 A2986 RMK A01 T02061089  RH  013%=      5-min Rain = 0
KDC1 160704Z 26010KT 21/M09 A2986 RMK A01 T02051089  RH  013%=      5-min Rain = 0
KDC1 160705Z 26010KT 21/M09 A2986 RMK A01 T02051086  RH  013%=      5-min Rain = 0
KDC1 160706Z 26010KT 20/M09 A2986 RMK A01 T02031085  RH  014%=      5-min Rain = 0
KDC1 160707Z 26010KT 20/M08 A2986 RMK A01 T02031084  RH  014%=      5-min Rain = 0
KDC1 160708Z 26011KT 20/M08 A2986 RMK A01 T02021083  RH  014%=      5-min Rain = 0
KDC1 160709Z 26010KT 20/M09 A2986 RMK A01 T02011085  RH  014%=      5-min Rain = 0
KDC1 160710Z 26011KT 20/M09 A2986 RMK A01 T02011085  RH  014%=      5-min Rain = 0
KDC1 160711Z 25011KT 20/M08 A2986 RMK A01 T02011084  RH  014%=      5-min Rain = 0
KDC1 160712Z 25011KT 20/M08 A2986 RMK A01 T02001084  RH  014%=      5-min Rain = 0
KDC1 160713Z 26012KT 20/M09 A2986 RMK A01 T02001087  RH  014%=      5-min Rain = 0
KDC1 160714Z 26010KT 20/M09 A2986 RMK A01 T02011088  RH  013%=      5-min Rain = 0
KDC1 160715Z 26012KT 20/M09 A2986 RMK A01 T02011086  RH  014%=      5-min Rain = 0
KDC1 160716Z 26013KT 20/M09 A2986 RMK A01 T02011092  RH  013%=      5-min Rain = 0
KDC1 160717Z 26012KT 20/M09 A2986 RMK A01 T02031093  RH  013%=      5-min Rain = 0
KDC1 160718Z 26011KT 20/M09 A2986 RMK A01 T02031091  RH  013%=      5-min Rain = 0
KDC1 160719Z 26012KT 20/M09 A2986 RMK A01 T02021090  RH  013%=      5-min Rain = 0
KDC1 160720Z 26012KT 20/M09 A2986 RMK A01 T02021089  RH  013%=      5-min Rain = 0
KDC1 160721Z 26011KT 20/M09 A2986 RMK A01 T02011087  RH  014%=      5-min Rain = 0
KDC1 160722Z 25012KT 20/M09 A2986 RMK A01 T02001087  RH  014%=      5-min Rain = 0
KDC1 160723Z 26011KT 20/M09 A2986 RMK A01 T01991087  RH  014%=      5-min Rain = 0
KDC1 160724Z 25012KT 20/M09 A2986 RMK A01 T01981088  RH  014%=      5-min Rain = 0
KDC1 160725Z 26012KT 20/M09 A2986 RMK A01 T01991094  RH  013%=      5-min Rain = 0
KDC1 160726Z 26012KT 20/M09 A2986 RMK A01 T02001093  RH  013%=      5-min Rain = 0
KDC1 160727Z 26013KT 20/M09 A2986 RMK A01 T02001093  RH  013%=      5-min Rain = 0
KDC1 160728Z 26013KT 20/M10 A2986 RMK A01 T02011098  RH  012%=      5-min Rain = 0
KDC1 160729Z 26013KT 20/M10 A2986 RMK A01 T02021095  RH  013%=      5-min Rain = 0
KDC1 160730Z 26012KT 20/M09 A2986 RMK A01 T02011092  RH  013%=      5-min Rain = 0
KDC1 160731Z 26013KT 20/M09 A2986 RMK A01 T01991091  RH  013%=      5-min Rain = 0
KDC1 160732Z 26013KT 20/M09 A2986 RMK A01 T01961089  RH  014%=      5-min Rain = 0
KDC1 160733Z 26013KT 20/M09 A2986 RMK A01 T01951089  RH  014%=      5-min Rain = 0
KDC1 160734Z 26014KT 19/M09 A2986 RMK A01 T01941089  RH  014%=      5-min Rain = 0
KDC1 160735Z 26013KT 19/M09 A2986 RMK A01 T01931091  RH  014%=      5-min Rain = 0
KDC1 160736Z 26011KT 19/M09 A2986 RMK A01 T01931089  RH  014%=      5-min Rain = 0
KDC1 160737Z 26013KT 19/M09 A2986 RMK A01 T01931086  RH  014%=      5-min Rain = 0
KDC1 160738Z 26011KT 19/M09 A2986 RMK A01 T01911087  RH  014%=      5-min Rain = 0
KDC1 160739Z 26012KT 19/M09 A2985 RMK A01 T01911088  RH  014%=      5-min Rain = 0
KDC1 160740Z 26012KT 19/M09 A2986 RMK A01 T01901087  RH  014%=      5-min Rain = 0
KDC1 160741Z 26010KT 19/M09 A2986 RMK A01 T01891086  RH  015%=      5-min Rain = 0
KDC1 160742Z 26013KT 19/M09 A2986 RMK A01 T01881088  RH  015%=      5-min Rain = 0
KDC1 160743Z 27012KT 19/M09 A2986 RMK A01 T01871086  RH  015%=      5-min Rain = 0
KDC1 160744Z 27012KT 19/M09 A2986 RMK A01 T01851085  RH  015%=      5-min Rain = 0
KDC1 160745Z 26011KT 19/M08 A2986 RMK A01 T01851084  RH  015%=      5-min Rain = 0
KDC1 160746Z 26010KT 18/M08 A2986 RMK A01 T01831080  RH  016%=      5-min Rain = 0
KDC1 160747Z 26011KT 18/M08 A2986 RMK A01 T01821081  RH  016%=      5-min Rain = 0
KDC1 160748Z 26012KT 18/M08 A2986 RMK A01 T01821084  RH  016%=      5-min Rain = 0
KDC1 160749Z 26010KT 18/M09 A2986 RMK A01 T01821085  RH  015%=      5-min Rain = 0
KDC1 160750Z 26010KT 18/M08 A2986 RMK A01 T01811081  RH  016%=      5-min Rain = 0
KDC1 160751Z 26011KT 18/M08 A2986 RMK A01 T01801080  RH  016%=      5-min Rain = 0
KDC1 160752Z 26010KT 18/M08 A2986 RMK A01 T01801080  RH  016%=      5-min Rain = 0
KDC1 160753Z 26010KT 18/M08 A2986 RMK A01 T01791079  RH  016%=      5-min Rain = 0
KDC1 160754Z 27010KT 18/M08 A2986 RMK A01 T01781077  RH  017%=      5-min Rain = 0
KDC1 160755Z 27009KT 18/M08 A2986 RMK A01 T01761078  RH  017%=      5-min Rain = 0
KDC1 160756Z 27009KT 17/M08 A2986 RMK A01 T01731079  RH  017%=      5-min Rain = 0
KDC1 160757Z 27009KT 17/M08 A2986 RMK A01 T01711079  RH  017%=      5-min Rain = 0
KDC1 160758Z 27008KT 17/M08 A2986 RMK A01 T01701079  RH  017%=      5-min Rain = 0
KDC1 160759Z 26008KT 17/M08 A2986 RMK A01 T01681078  RH  018%=      5-min Rain = 0
KDC1 160800Z 26009KT 17/M08 A2986 RMK A01 T01671075  RH  018%=      5-min Rain = 0
KDC1 160801Z 26009KT 17/M07 A2986 RMK A01 T01661074  RH  019%=      5-min Rain = 0
KDC1 160802Z 26009KT 17/M08 A2986 RMK A01 T01681075  RH  018%=      5-min Rain = 0
KDC1 160803Z 26008KT 17/M07 A2986 RMK A01 T01691074  RH  018%=      5-min Rain = 0
KDC1 160804Z 27007KT 17/M07 A2986 RMK A01 T01681068  RH  019%=      5-min Rain = 0
KDC1 160805Z 27008KT 17/M07 A2986 RMK A01 T01651066  RH  020%=      5-min Rain = 0
KDC1 160806Z 27007KT 16/M07 A2986 RMK A01 T01621066  RH  020%=      5-min Rain = 0
KDC1 160807Z 27008KT 16/M07 A2986 RMK A01 T01601067  RH  020%=      5-min Rain = 0
KDC1 160808Z 26008KT 16/M07 A2986 RMK A01 T01591068  RH  021%=      5-min Rain = 0
KDC1 160809Z 26009KT 16/M07 A2986 RMK A01 T01581069  RH  020%=      5-min Rain = 0
KDC1 160810Z 26009KT 16/M07 A2986 RMK A01 T01581071  RH  020%=      5-min Rain = 0
KDC1 160811Z 26007KT 16/M07 A2986 RMK A01 T01581073  RH  020%=      5-min Rain = 0
KDC1 160812Z 26007KT 16/M07 A2986 RMK A01 T01581073  RH  020%=      5-min Rain = 0
KDC1 160813Z 26007KT 16/M07 A2986 RMK A01 T01581071  RH  020%=      5-min Rain = 0
KDC1 160814Z 26007KT 16/M07 A2986 RMK A01 T01581067  RH  021%=      5-min Rain = 0
KDC1 160815Z 26007KT 16/M07 A2986 RMK A01 T01571066  RH  021%=      5-min Rain = 0
KDC1 160816Z 26007KT 16/M06 A2986 RMK A01 T01561062  RH  022%=      5-min Rain = 0
KDC1 160817Z 25007KT 15/M06 A2986 RMK A01 T01531062  RH  022%=      5-min Rain = 0
KDC1 160818Z 25008KT 16/M07 A2986 RMK A01 T01551074  RH  020%=      5-min Rain = 0
KDC1 160819Z 26008KT 16/M08 A2986 RMK A01 T01611078  RH  019%=      5-min Rain = 0
KDC1 160820Z 26008KT 17/M08 A2986 RMK A01 T01661081  RH  018%=      5-min Rain = 0
KDC1 160821Z 26008KT 17/M08 A2986 RMK A01 T01681081  RH  017%=      5-min Rain = 0
KDC1 160822Z 26010KT 17/M08 A2986 RMK A01 T01691081  RH  017%=      5-min Rain = 0
KDC1 160823Z 26010KT 17/M08 A2986 RMK A01 T01691080  RH  017%=      5-min Rain = 0
KDC1 160824Z 26009KT 17/M08 A2986 RMK A01 T01711080  RH  017%=      5-min Rain = 0
KDC1 160825Z 26009KT 17/M08 A2986 RMK A01 T01721083  RH  017%=      5-min Rain = 0
KDC1 160826Z 26009KT 17/M08 A2986 RMK A01 T01731083  RH  017%=      5-min Rain = 0
KDC1 160827Z 26010KT 17/M08 A2986 RMK A01 T01731082  RH  017%=      5-min Rain = 0
KDC1 160828Z 26010KT 17/M08 A2986 RMK A01 T01741081  RH  017%=      5-min Rain = 0
KDC1 160829Z 26010KT 17/M08 A2986 RMK A01 T01741082  RH  017%=      5-min Rain = 0
KDC1 160830Z 26010KT 17/M08 A2985 RMK A01 T01741083  RH  016%=      5-min Rain = 0
KDC1 160831Z 26011KT 18/M08 A2985 RMK A01 T01751084  RH  016%=      5-min Rain = 0
KDC1 160832Z 26011KT 18/M08 A2985 RMK A01 T01761082  RH  016%=      5-min Rain = 0
KDC1 160833Z 25011KT 18/M08 A2985 RMK A01 T01761080  RH  017%=      5-min Rain = 0
KDC1 160834Z 25010KT 18/M08 A2985 RMK A01 T01761082  RH  016%=      5-min Rain = 0
KDC1 160835Z 25012KT 18/M08 A2985 RMK A01 T01761081  RH  016%=      5-min Rain = 0
KDC1 160836Z 25011KT 18/M08 A2985 RMK A01 T01771081  RH  016%=      5-min Rain = 0
KDC1 160837Z 26010KT 18/M08 A2985 RMK A01 T01771081  RH  016%=      5-min Rain = 0
KDC1 160838Z 25011KT 18/M08 A2985 RMK A01 T01771080  RH  017%=      5-min Rain = 0
KDC1 160839Z 25010KT 18/M08 A2985 RMK A01 T01761079  RH  017%=      5-min Rain = 0
KDC1 160840Z 26011KT 18/M08 A2985 RMK A01 T01751079  RH  017%=      5-min Rain = 0
KDC1 160841Z 26011KT 18/M08 A2985 RMK A01 T01751079  RH  017%=      5-min Rain = 0
KDC1 160842Z 26012KT 18/M08 A2985 RMK A01 T01761082  RH  016%=      5-min Rain = 0
KDC1 160843Z 26011KT 18/M08 A2985 RMK A01 T01771081  RH  017%=      5-min Rain = 0
KDC1 160844Z 26011KT 18/M08 A2985 RMK A01 T01761080  RH  017%=      5-min Rain = 0
KDC1 160845Z 26011KT 18/M08 A2985 RMK A01 T01751078  RH  017%=      5-min Rain = 0
KDC1 160846Z 26010KT 17/M08 A2985 RMK A01 T01741077  RH  017%=      5-min Rain = 0
KDC1 160847Z 26011KT 17/M08 A2985 RMK A01 T01721076  RH  018%=      5-min Rain = 0
KDC1 160848Z 26010KT 17/M07 A2985 RMK A01 T01711073  RH  018%=      5-min Rain = 0
KDC1 160849Z 26010KT 17/M07 A2985 RMK A01 T01681072  RH  019%=      5-min Rain = 0
KDC1 160850Z 26010KT 17/M07 A2985 RMK A01 T01651074  RH  019%=      5-min Rain = 0
KDC1 160851Z 26009KT 16/M08 A2985 RMK A01 T01631075  RH  019%=      5-min Rain = 0
KDC1 160852Z 26009KT 16/M07 A2985 RMK A01 T01621073  RH  019%=      5-min Rain = 0
KDC1 160853Z 26009KT 16/M07 A2985 RMK A01 T01611072  RH  019%=      5-min Rain = 0
KDC1 160854Z 27009KT 16/M07 A2985 RMK A01 T01611073  RH  019%=      5-min Rain = 0
KDC1 160855Z 27009KT 16/M07 A2985 RMK A01 T01601074  RH  019%=      5-min Rain = 0
KDC1 160856Z 27008KT 16/M07 A2985 RMK A01 T01581072  RH  020%=      5-min Rain = 0
KDC1 160857Z 27008KT 16/M07 A2985 RMK A01 T01551070  RH  020%=      5-min Rain = 0
KDC1 160858Z 26008KT 15/M07 A2985 RMK A01 T01531070  RH  021%=      5-min Rain = 0
KDC1 160859Z 26008KT 15/M07 A2985 RMK A01 T01521070  RH  021%=      5-min Rain = 0
KDC1 160900Z 26008KT 15/M07 A2985 RMK A01 T01521070  RH  021%=      5-min Rain = 0
KDC1 160901Z 26009KT 15/M07 A2985 RMK A01 T01501069  RH  021%=      5-min Rain = 0
KDC1 160902Z 26008KT 15/M07 A2985 RMK A01 T01501069  RH  021%=      5-min Rain = 0
KDC1 160903Z 27008KT 15/M07 A2985 RMK A01 T01511069  RH  021%=      5-min Rain = 0
KDC1 160904Z 27008KT 15/M07 A2985 RMK A01 T01511068  RH  021%=      5-min Rain = 0
KDC1 160905Z 27007KT 15/M06 A2986 RMK A01 T01491064  RH  022%=      5-min Rain = 0
KDC1 160906Z 27007KT 15/M06 A2986 RMK A01 T01461061  RH  023%=      5-min Rain = 0
KDC1 160907Z 27007KT 14/M06 A2986 RMK A01 T01431058  RH  024%=      5-min Rain = 0
KDC1 160908Z 27007KT 14/M06 A2986 RMK A01 T01411056  RH  025%=      5-min Rain = 0
KDC1 160909Z 27007KT 14/M06 A2986 RMK A01 T01401056  RH  025%=      5-min Rain = 0
KDC1 160910Z 27007KT 14/M06 A2986 RMK A01 T01391057  RH  025%=      5-min Rain = 0
KDC1 160911Z 27007KT 14/M06 A2986 RMK A01 T01371057  RH  025%=      5-min Rain = 0
KDC1 160912Z 27007KT 14/M06 A2986 RMK A01 T01361057  RH  026%=      5-min Rain = 0
KDC1 160913Z 26006KT 14/M06 A2986 RMK A01 T01361056  RH  026%=      5-min Rain = 0
KDC1 160914Z 27006KT 14/M05 A2986 RMK A01 T01351053  RH  027%=      5-min Rain = 0
KDC1 160915Z 30004KT 13/M03 A2986 RMK A01 T01311029  RH  033%=      5-min Rain = 0
KDC1 160916Z 32004KT 13/M02 A2986 RMK A01 T01271022  RH  036%=      5-min Rain = 0
KDC1 160917Z 32004KT 13/M03 A2986 RMK A01 T01251028  RH  034%=      5-min Rain = 0
KDC1 160918Z 30005KT 13/M03 A2986 RMK A01 T01251034  RH  033%=      5-min Rain = 0
KDC1 160919Z 29005KT 13/M04 A2986 RMK A01 T01271038  RH  032%=      5-min Rain = 0
KDC1 160920Z 29007KT 13/M04 A2986 RMK A01 T01291043  RH  030%=      5-min Rain = 0
KDC1 160921Z 29007KT 13/M05 A2986 RMK A01 T01331051  RH  027%=      5-min Rain = 0
KDC1 160922Z 29006KT 14/M05 A2986 RMK A01 T01381054  RH  026%=      5-min Rain = 0
KDC1 160923Z 30006KT 14/M05 A2986 RMK A01 T01381046  RH  027%=      5-min Rain = 0
KDC1 160924Z 31006KT 14/M05 A2986 RMK A01 T01371048  RH  027%=      5-min Rain = 0
KDC1 160925Z 31007KT 14/M05 A2986 RMK A01 T01361053  RH  027%=      5-min Rain = 0
KDC1 160926Z 30007KT 14/M05 A2986 RMK A01 T01361054  RH  026%=      5-min Rain = 0
KDC1 160927Z 30006KT 14/M06 A2986 RMK A01 T01371058  RH  025%=      5-min Rain = 0
KDC1 160928Z 30007KT 14/M06 A2986 RMK A01 T01381059  RH  025%=      5-min Rain = 0
KDC1 160929Z 31006KT 14/M06 A2986 RMK A01 T01391058  RH  025%=      5-min Rain = 0
KDC1 160930Z 31006KT 14/M06 A2986 RMK A01 T01391058  RH  025%=      5-min Rain = 0
KDC1 160931Z 30006KT 14/M06 A2986 RMK A01 T01391057  RH  025%=      5-min Rain = 0
KDC1 160932Z 31006KT 14/M06 A2986 RMK A01 T01391057  RH  025%=      5-min Rain = 0
KDC1 160933Z 30006KT 14/M06 A2986 RMK A01 T01391061  RH  025%=      5-min Rain = 0
KDC1 160934Z 30006KT 14/M05 A2986 RMK A01 T01391054  RH  026%=      5-min Rain = 0
KDC1 160935Z 30007KT 14/M06 A2986 RMK A01 T01381055  RH  026%=      5-min Rain = 0
KDC1 160936Z 30006KT 14/M05 A2986 RMK A01 T01361053  RH  026%=      5-min Rain = 0
KDC1 160937Z 30006KT 14/M05 A2986 RMK A01 T01351051  RH  027%=      5-min Rain = 0
KDC1 160938Z 31006KT 13/M05 A2986 RMK A01 T01341050  RH  027%=      5-min Rain = 0
KDC1 160939Z 31007KT 13/M06 A2986 RMK A01 T01331055  RH  027%=      5-min Rain = 0
KDC1 160940Z 31006KT 13/M06 A2986 RMK A01 T01341060  RH  025%=      5-min Rain = 0
KDC1 160941Z 30006KT 14/M06 A2986 RMK A01 T01351058  RH  026%=      5-min Rain = 0
KDC1 160942Z 32006KT 13/M06 A2986 RMK A01 T01341056  RH  026%=      5-min Rain = 0
KDC1 160943Z 31006KT 13/M06 A2986 RMK A01 T01341058  RH  026%=      5-min Rain = 0
KDC1 160944Z 31006KT 13/M06 A2986 RMK A01 T01331055  RH  027%=      5-min Rain = 0
KDC1 160945Z 31006KT 13/M04 A2986 RMK A01 T01291043  RH  030%=      5-min Rain = 0
KDC1 160946Z 31007KT 13/M05 A2986 RMK A01 T01281051  RH  028%=      5-min Rain = 0
KDC1 160947Z 31006KT 13/M05 A2986 RMK A01 T01281045  RH  030%=      5-min Rain = 0
KDC1 160948Z 31006KT 13/M05 A2986 RMK A01 T01271046  RH  030%=      5-min Rain = 0
KDC1 160949Z 32007KT 13/M05 A2986 RMK A01 T01271046  RH  030%=      5-min Rain = 0
KDC1 160950Z 31007KT 13/M05 A2986 RMK A01 T01271053  RH  028%=      5-min Rain = 0
KDC1 160951Z 31007KT 13/M05 A2986 RMK A01 T01291050  RH  028%=      5-min Rain = 0
KDC1 160952Z 30007KT 13/M05 A2986 RMK A01 T01281045  RH  030%=      5-min Rain = 0
KDC1 160953Z 29007KT 12/M05 A2986 RMK A01 T01241045  RH  030%=      5-min Rain = 0
KDC1 160954Z 29008KT 12/M05 A2986 RMK A01 T01201045  RH  031%=      5-min Rain = 0
KDC1 160955Z 29008KT 12/M05 A2986 RMK A01 T01191049  RH  031%=      5-min Rain = 0
KDC1 160956Z 28007KT 12/M05 A2986 RMK A01 T01201049  RH  030%=      5-min Rain = 0
KDC1 160957Z 28007KT 12/M05 A2986 RMK A01 T01221050  RH  030%=      5-min Rain = 0
KDC1 160958Z 28008KT 12/M05 A2986 RMK A01 T01221050  RH  030%=      5-min Rain = 0
KDC1 160959Z 28008KT 12/M04 A2986 RMK A01 T01221043  RH  031%=      5-min Rain = 0
KDC1 161000Z 28008KT 12/M04 A2986 RMK A01 T01181039  RH  033%=      5-min Rain = 0
KDC1 161001Z 27008KT 11/M04 A2986 RMK A01 T01141038  RH  034%=      5-min Rain = 0
KDC1 161002Z 27008KT 11/M04 A2986 RMK A01 T01141044  RH  033%=      5-min Rain = 0
KDC1 161003Z 27009KT 12/M05 A2986 RMK A01 T01171049  RH  031%=      5-min Rain = 0
KDC1 161004Z 27009KT 12/M05 A2986 RMK A01 T01201049  RH  030%=      5-min Rain = 0
KDC1 161005Z 27009KT 12/M05 A2986 RMK A01 T01201046  RH  031%=      5-min Rain = 0
KDC1 161006Z 27008KT 12/M04 A2986 RMK A01 T01191044  RH  032%=      5-min Rain = 0
KDC1 161007Z 27009KT 12/M04 A2986 RMK A01 T01161041  RH  033%=      5-min Rain = 0
KDC1 161008Z 28009KT 11/M04 A2986 RMK A01 T01131040  RH  034%=      5-min Rain = 0
KDC1 161009Z 27009KT 11/M04 A2986 RMK A01 T01121039  RH  035%=      5-min Rain = 0
KDC1 161010Z 27009KT 11/M04 A2986 RMK A01 T01101037  RH  035%=      5-min Rain = 0
KDC1 161011Z 27009KT 11/M04 A2986 RMK A01 T01091035  RH  036%=      5-min Rain = 0
KDC1 161012Z 27010KT 11/M03 A2986 RMK A01 T01081034  RH  037%=      5-min Rain = 0
KDC1 161013Z 27009KT 11/M04 A2986 RMK A01 T01071037  RH  036%=      5-min Rain = 0
KDC1 161014Z 27009KT 11/M04 A2986 RMK A01 T01081039  RH  035%=      5-min Rain = 0
KDC1 161015Z 28009KT 11/M04 A2986 RMK A01 T01091038  RH  036%=      5-min Rain = 0
KDC1 161016Z 27009KT 11/M04 A2986 RMK A01 T01091036  RH  036%=      5-min Rain = 0
KDC1 161017Z 27009KT 11/M04 A2986 RMK A01 T01071035  RH  037%=      5-min Rain = 0
KDC1 161018Z 27010KT 11/M03 A2986 RMK A01 T01071034  RH  037%=      5-min Rain = 0
KDC1 161019Z 27010KT 11/M03 A2986 RMK A01 T01061034  RH  037%=      5-min Rain = 0
KDC1 161020Z 27009KT 11/M03 A2986 RMK A01 T01061034  RH  037%=      5-min Rain = 0
KDC1 161021Z 27009KT 11/M03 A2986 RMK A01 T01051031  RH  038%=      5-min Rain = 0
KDC1 161022Z 27010KT 10/M03 A2986 RMK A01 T01031031  RH  039%=      5-min Rain = 0
KDC1 161023Z 28010KT 10/M03 A2986 RMK A01 T01031033  RH  038%=      5-min Rain = 0
KDC1 161024Z 28011KT 10/M04 A2986 RMK A01 T01031035  RH  038%=      5-min Rain = 0
KDC1 161025Z 28011KT 11/M04 A2986 RMK A01 T01051035  RH  037%=      5-min Rain = 0
KDC1 161026Z 28011KT 11/M04 A2985 RMK A01 T01071036  RH  037%=      5-min Rain = 0
KDC1 161027Z 28011KT 11/M03 A2985 RMK A01 T01071031  RH  038%=      5-min Rain = 0
KDC1 161028Z 28010KT 11/M03 A2985 RMK A01 T01071028  RH  039%=      5-min Rain = 0
KDC1 161029Z 28011KT 11/M03 A2985 RMK A01 T01071025  RH  040%=      5-min Rain = 0
KDC1 161030Z 28011KT 11/M02 A2985 RMK A01 T01061023  RH  040%=      5-min Rain = 0
KDC1 161031Z 28011KT 11/M02 A2985 RMK A01 T01051021  RH  041%=      5-min Rain = 0
KDC1 161032Z 28011KT 11/M02 A2986 RMK A01 T01051022  RH  041%=      5-min Rain = 0
KDC1 161033Z 28011KT 11/M02 A2986 RMK A01 T01051023  RH  041%=      5-min Rain = 0
KDC1 161034Z 28011KT 11/M02 A2985 RMK A01 T01051024  RH  040%=      5-min Rain = 0
KDC1 161035Z 28011KT 11/M03 A2985 RMK A01 T01051026  RH  040%=      5-min Rain = 0
KDC1 161036Z 27010KT 11/M03 A2986 RMK A01 T01061025  RH  040%=      5-min Rain = 0
KDC1 161037Z 27010KT 11/M02 A2986 RMK A01 T01051024  RH  041%=      5-min Rain = 0
KDC1 161038Z 28010KT 10/M02 A2986 RMK A01 T01041023  RH  041%=      5-min Rain = 0
KDC1 161039Z 28010KT 10/M02 A2986 RMK A01 T01031023  RH  041%=      5-min Rain = 0
KDC1 161040Z 28010KT 10/M02 A2986 RMK A01 T01031024  RH  041%=      5-min Rain = 0
KDC1 161041Z 28010KT 10/M03 A2986 RMK A01 T01031025  RH  041%=      5-min Rain = 0
KDC1 161042Z 28010KT 10/M03 A2986 RMK A01 T01041026  RH  040%=      5-min Rain = 0
KDC1 161043Z 28009KT 10/M03 A2986 RMK A01 T01041027  RH  040%=      5-min Rain = 0
KDC1 161044Z 28009KT 10/M03 A2986 RMK A01 T01041026  RH  040%=      5-min Rain = 0
KDC1 161045Z 28010KT 10/M03 A2986 RMK A01 T01041025  RH  040%=      5-min Rain = 0
KDC1 161046Z 28010KT 10/M02 A2986 RMK A01 T01041024  RH  041%=      5-min Rain = 0
KDC1 161047Z 28010KT 10/M02 A2986 RMK A01 T01031023  RH  041%=      5-min Rain = 0
KDC1 161048Z 28009KT 10/M02 A2986 RMK A01 T01021021  RH  042%=      5-min Rain = 0
KDC1 161049Z 28010KT 10/M02 A2986 RMK A01 T01011020  RH  043%=      5-min Rain = 0
KDC1 161050Z 28011KT 10/M02 A2986 RMK A01 T01001023  RH  042%=      5-min Rain = 0
KDC1 161051Z 28011KT 10/M03 A2986 RMK A01 T01011029  RH  040%=      5-min Rain = 0
KDC1 161052Z 28010KT 10/M03 A2986 RMK A01 T01031031  RH  039%=      5-min Rain = 0
KDC1 161053Z 28011KT 10/M03 A2986 RMK A01 T01031030  RH  039%=      5-min Rain = 0
KDC1 161054Z 28010KT 10/M03 A2986 RMK A01 T01031030  RH  039%=      5-min Rain = 0
KDC1 161055Z 28011KT 10/M03 A2986 RMK A01 T01031030  RH  039%=      5-min Rain = 0
KDC1 161056Z 28010KT 10/M03 A2986 RMK A01 T01031031  RH  039%=      5-min Rain = 0
KDC1 161057Z 28010KT 10/M03 A2986 RMK A01 T01031032  RH  038%=      5-min Rain = 0
KDC1 161058Z 28010KT 10/M03 A2986 RMK A01 T01031033  RH  038%=      5-min Rain = 0
KDC1 161059Z 27010KT 10/M03 A2986 RMK A01 T01031032  RH  039%=      5-min Rain = 0
KDC1 161100Z 28010KT 10/M03 A2986 RMK A01 T01021031  RH  039%=      5-min Rain = 0
KDC1 161101Z 28010KT 10/M03 A2986 RMK A01 T01001032  RH  039%=      5-min Rain = 0
KDC1 161102Z 28010KT 10/M03 A2986 RMK A01 T01001033  RH  039%=      5-min Rain = 0
KDC1 161103Z 28009KT 10/M04 A2986 RMK A01 T01001036  RH  038%=      5-min Rain = 0
KDC1 161104Z 28009KT 10/M04 A2986 RMK A01 T01001036  RH  038%=      5-min Rain = 0
KDC1 161105Z 28009KT 10/M03 A2986 RMK A01 T01001033  RH  039%=      5-min Rain = 0
KDC1 161106Z 28009KT 10/M03 A2986 RMK A01 T00981032  RH  040%=      5-min Rain = 0
KDC1 161107Z 28010KT 10/M03 A2986 RMK A01 T00971032  RH  040%=      5-min Rain = 0
KDC1 161108Z 28010KT 10/M03 A2986 RMK A01 T00951032  RH  041%=      5-min Rain = 0
KDC1 161109Z 28010KT 09/M03 A2986 RMK A01 T00941034  RH  040%=      5-min Rain = 0
KDC1 161110Z 28011KT 09/M04 A2986 RMK A01 T00941036  RH  040%=      5-min Rain = 0
KDC1 161111Z 28011KT 09/M04 A2986 RMK A01 T00941039  RH  039%=      5-min Rain = 0
KDC1 161112Z 28011KT 09/M04 A2986 RMK A01 T00941041  RH  038%=      5-min Rain = 0
KDC1 161113Z 28011KT 09/M04 A2986 RMK A01 T00941044  RH  037%=      5-min Rain = 0
KDC1 161114Z 28010KT 09/M05 A2986 RMK A01 T00941045  RH  037%=      5-min Rain = 0
KDC1 161115Z 28010KT 09/M04 A2986 RMK A01 T00941044  RH  037%=      5-min Rain = 0
KDC1 161116Z 28010KT 09/M04 A2986 RMK A01 T00931044  RH  038%=      5-min Rain = 0
KDC1 161117Z 28009KT 09/M04 A2986 RMK A01 T00921043  RH  038%=      5-min Rain = 0
KDC1 161118Z 28010KT 09/M04 A2986 RMK A01 T00901040  RH  040%=      5-min Rain = 0
KDC1 161119Z 28011KT 09/M04 A2986 RMK A01 T00881040  RH  040%=      5-min Rain = 0
KDC1 161120Z 28011KT 09/M04 A2986 RMK A01 T00881042  RH  040%=      5-min Rain = 0
KDC1 161121Z 28010KT 09/M04 A2986 RMK A01 T00881044  RH  039%=      5-min Rain = 0
KDC1 161122Z 28010KT 09/M05 A2986 RMK A01 T00891045  RH  038%=      5-min Rain = 0
KDC1 161123Z 28010KT 09/M05 A2986 RMK A01 T00901046  RH  038%=      5-min Rain = 0
KDC1 161124Z 28010KT 09/M05 A2986 RMK A01 T00901046  RH  038%=      5-min Rain = 0
KDC1 161125Z 28010KT 09/M05 A2986 RMK A01 T00901045  RH  038%=      5-min Rain = 0
KDC1 161126Z 28011KT 09/M05 A2986 RMK A01 T00891046  RH  038%=      5-min Rain = 0
KDC1 161127Z 28011KT 09/M05 A2986 RMK A01 T00891046  RH  038%=      5-min Rain = 0
KDC1 161128Z 28011KT 09/M05 A2986 RMK A01 T00891049  RH  037%=      5-min Rain = 0
KDC1 161129Z 28011KT 09/M05 A2986 RMK A01 T00891052  RH  036%=      5-min Rain = 0
KDC1 161130Z 28011KT 09/M05 A2986 RMK A01 T00901053  RH  036%=      5-min Rain = 0
KDC1 161131Z 28011KT 09/M05 A2986 RMK A01 T00901054  RH  036%=      5-min Rain = 0
KDC1 161132Z 29010KT 09/M05 A2986 RMK A01 T00901054  RH  036%=      5-min Rain = 0
KDC1 161133Z 29010KT 09/M06 A2986 RMK A01 T00901055  RH  035%=      5-min Rain = 0
KDC1 161134Z 29011KT 09/M06 A2986 RMK A01 T00901055  RH  035%=      5-min Rain = 0
KDC1 161135Z 29011KT 09/M05 A2986 RMK A01 T00901054  RH  036%=      5-min Rain = 0
KDC1 161136Z 29011KT 09/M05 A2986 RMK A01 T00901054  RH  036%=      5-min Rain = 0
KDC1 161137Z 29010KT 09/M06 A2986 RMK A01 T00901056  RH  035%=      5-min Rain = 0
KDC1 161138Z 29011KT 09/M06 A2986 RMK A01 T00901057  RH  035%=      5-min Rain = 0
KDC1 161139Z 29011KT 09/M06 A2986 RMK A01 T00901058  RH  035%=      5-min Rain = 0
KDC1 161140Z 29011KT 09/M06 A2986 RMK A01 T00901059  RH  034%=      5-min Rain = 0
KDC1 161141Z 29011KT 09/M06 A2986 RMK A01 T00901059  RH  034%=      5-min Rain = 0
KDC1 161142Z 29011KT 09/M06 A2987 RMK A01 T00901058  RH  034%=      5-min Rain = 0
KDC1 161143Z 29011KT 09/M06 A2987 RMK A01 T00901057  RH  035%=      5-min Rain = 0
KDC1 161144Z 29011KT 09/M06 A2987 RMK A01 T00901056  RH  035%=      5-min Rain = 0
KDC1 161145Z 29011KT 09/M06 A2986 RMK A01 T00901056  RH  035%=      5-min Rain = 0
KDC1 161146Z 29011KT 09/M06 A2986 RMK A01 T00891056  RH  035%=      5-min Rain = 0
KDC1 161147Z 29011KT 09/M06 A2986 RMK A01 T00891057  RH  035%=      5-min Rain = 0
KDC1 161148Z 29011KT 09/M06 A2986 RMK A01 T00901059  RH  034%=      5-min Rain = 0
KDC1 161149Z 29011KT 09/M06 A2986 RMK A01 T00911059  RH  034%=      5-min Rain = 0
KDC1 161150Z 29011KT 09/M06 A2987 RMK A01 T00911058  RH  034%=      5-min Rain = 0
KDC1 161151Z 29011KT 09/M06 A2987 RMK A01 T00901057  RH  035%=      5-min Rain = 0
KDC1 161152Z 29011KT 09/M06 A2987 RMK A01 T00901056  RH  035%=      5-min Rain = 0
KDC1 161153Z 29012KT 09/M06 A2987 RMK A01 T00901058  RH  035%=      5-min Rain = 0
KDC1 161154Z 29011KT 09/M06 A2987 RMK A01 T00901060  RH  034%=      5-min Rain = 0
KDC1 161155Z 29011KT 09/M06 A2987 RMK A01 T00911059  RH  034%=      5-min Rain = 0
KDC1 161156Z 29011KT 09/M06 A2987 RMK A01 T00911058  RH  035%=      5-min Rain = 0
KDC1 161157Z 29011KT 09/M06 A2987 RMK A01 T00901057  RH  035%=      5-min Rain = 0
KDC1 161158Z 29011KT 09/M06 A2987 RMK A01 T00891057  RH  035%=      5-min Rain = 0
KDC1 161159Z 29012KT 09/M06 A2987 RMK A01 T00891058  RH  035%=      5-min Rain = 0
KDC1 161200Z 29011KT 09/M06 A2987 RMK A01 T00911061  RH  034%=      5-min Rain = 0
KDC1 161201Z 29011KT 09/M06 A2987 RMK A01 T00931061  RH  033%=      5-min Rain = 0
KDC1 161202Z 29011KT 09/M06 A2987 RMK A01 T00931062  RH  033%=      5-min Rain = 0
KDC1 161203Z 29011KT 09/M06 A2987 RMK A01 T00921062  RH  033%=      5-min Rain = 0
KDC1 161204Z 29011KT 09/M06 A2987 RMK A01 T00921060  RH  034%=      5-min Rain = 0
KDC1 161205Z 30011KT 09/M06 A2987 RMK A01 T00911059  RH  034%=      5-min Rain = 0
KDC1 161206Z 30011KT 09/M06 A2987 RMK A01 T00891055  RH  035%=      5-min Rain = 0
KDC1 161207Z 30010KT 09/M05 A2987 RMK A01 T00881053  RH  036%=      5-min Rain = 0
KDC1 161208Z 29011KT 09/M05 A2987 RMK A01 T00871053  RH  037%=      5-min Rain = 0
KDC1 161209Z 29011KT 09/M06 A2987 RMK A01 T00871056  RH  036%=      5-min Rain = 0
KDC1 161210Z 29009KT 09/M06 A2987 RMK A01 T00881058  RH  035%=      5-min Rain = 0
KDC1 161211Z 29010KT 09/M06 A2987 RMK A01 T00881057  RH  035%=      5-min Rain = 0
KDC1 161212Z 28010KT 09/M06 A2987 RMK A01 T00881055  RH  036%=      5-min Rain = 0
KDC1 161213Z 28011KT 09/M06 A2987 RMK A01 T00871055  RH  036%=      5-min Rain = 0
KDC1 161214Z 28010KT 09/M06 A2987 RMK A01 T00861057  RH  036%=      5-min Rain = 0
KDC1 161215Z 28010KT 09/M06 A2987 RMK A01 T00861059  RH  035%=      5-min Rain = 0
KDC1 161216Z 28010KT 09/M06 A2988 RMK A01 T00861061  RH  035%=      5-min Rain = 0
KDC1 161217Z 29009KT 09/M06 A2988 RMK A01 T00881061  RH  034%=      5-min Rain = 0
KDC1 161218Z 29008KT 09/M06 A2988 RMK A01 T00891060  RH  034%=      5-min Rain = 0
KDC1 161219Z 31006KT 09/M06 A2988 RMK A01 T00891058  RH  035%=      5-min Rain = 0
KDC1 161220Z 03007KT 09/M06 A2988 RMK A01 T00881056  RH  036%=      5-min Rain = 0
KDC1 161221Z 03006KT 09/M06 A2989 RMK A01 T00881056  RH  036%=      5-min Rain = 0
KDC1 161222Z 35004KT 09/M06 A2988 RMK A01 T00901058  RH  035%=      5-min Rain = 0
KDC1 161223Z 33003KT 09/M06 A2988 RMK A01 T00911063  RH  033%=      5-min Rain = 0
KDC1 161224Z 34005KT 09/M07 A2988 RMK A01 T00931072  RH  030%=      5-min Rain = 0
KDC1 161225Z 33005KT 10/M08 A2988 RMK A01 T00981079  RH  028%=      5-min Rain = 0
KDC1 161226Z 33005KT 10/M08 A2988 RMK A01 T01021083  RH  026%=      5-min Rain = 0
KDC1 161227Z 33003KT 11/M08 A2988 RMK A01 T01051082  RH  026%=      5-min Rain = 0
KDC1 161228Z 35002KT 11/M08 A2988 RMK A01 T01051082  RH  026%=      5-min Rain = 0
KDC1 161229Z 07002KT 11/M08 A2989 RMK A01 T01051079  RH  027%=      5-min Rain = 0
KDC1 161230Z 10001KT 11/M07 A2989 RMK A01 T01051074  RH  028%=      5-min Rain = 0
KDC1 161231Z 16001KT 10/M07 A2989 RMK A01 T01031068  RH  029%=      5-min Rain = 0
KDC1 161232Z 19001KT 10/M07 A2988 RMK A01 T01011068  RH  030%=      5-min Rain = 0
KDC1 161233Z 19001KT 10/M07 A2989 RMK A01 T01011071  RH  029%=      5-min Rain = 0
KDC1 161234Z 18001KT 10/M08 A2989 RMK A01 T01021075  RH  028%=      5-min Rain = 0
KDC1 161235Z 19001KT 10/M07 A2989 RMK A01 T01031067  RH  030%=      5-min Rain = 0
KDC1 161236Z 24002KT 10/M07 A2989 RMK A01 T01021066  RH  030%=      5-min Rain = 0
KDC1 161237Z 18001KT 10/M08 A2989 RMK A01 T01031075  RH  028%=      5-min Rain = 0
KDC1 161238Z 19002KT 11/M07 A2989 RMK A01 T01051074  RH  028%=      5-min Rain = 0
KDC1 161239Z 20002KT 11/M07 A2989 RMK A01 T01061070  RH  028%=      5-min Rain = 0
KDC1 161240Z 20002KT 11/M07 A2989 RMK A01 T01061072  RH  028%=      5-min Rain = 0
KDC1 161241Z 21002KT 11/M08 A2989 RMK A01 T01071075  RH  027%=      5-min Rain = 0
KDC1 161242Z 21002KT 11/M07 A2989 RMK A01 T01081074  RH  027%=      5-min Rain = 0
KDC1 161243Z 23002KT 11/M07 A2989 RMK A01 T01071072  RH  028%=      5-min Rain = 0
KDC1 161244Z 23003KT 11/M07 A2989 RMK A01 T01071071  RH  028%=      5-min Rain = 0
KDC1 161245Z 24003KT 11/M07 A2989 RMK A01 T01061074  RH  028%=      5-min Rain = 0
KDC1 161246Z 25004KT 11/M08 A2989 RMK A01 T01061075  RH  027%=      5-min Rain = 0
KDC1 161247Z 26004KT 11/M07 A2989 RMK A01 T01061074  RH  028%=      5-min Rain = 0
KDC1 161248Z 25004KT 11/M07 A2989 RMK A01 T01061072  RH  028%=      5-min Rain = 0
KDC1 161249Z 26005KT 11/M07 A2989 RMK A01 T01051065  RH  030%=      5-min Rain = 0
KDC1 161250Z 25005KT 10/M06 A2989 RMK A01 T01041060  RH  031%=      5-min Rain = 0
KDC1 161251Z 26005KT 10/M06 A2989 RMK A01 T01011058  RH  032%=      5-min Rain = 0
KDC1 161252Z 27005KT 10/M06 A2989 RMK A01 T00991056  RH  033%=      5-min Rain = 0
KDC1 161253Z 27005KT 10/M06 A2989 RMK A01 T00971057  RH  033%=      5-min Rain = 0
KDC1 161254Z 28005KT 10/M06 A2989 RMK A01 T00961058  RH  033%=      5-min Rain = 0
KDC1 161255Z 28005KT 10/M06 A2989 RMK A01 T00951057  RH  034%=      5-min Rain = 0
KDC1 161256Z 28004KT 09/M06 A2989 RMK A01 T00941056  RH  034%=      5-min Rain = 0
KDC1 161257Z 01006KT 09/M05 A299 RMK A01 T00921053  RH  036%=      5-min Rain = 0
KDC1 161258Z 03004KT 09/M05 A299 RMK A01 T00891046  RH  038%=      5-min Rain = 0
KDC1 161259Z 01007KT 09/M05 A299 RMK A01 T00891053  RH  036%=      5-min Rain = 0
KDC1 161300Z 00007KT 09/M07 A299 RMK A01 T00941068  RH  031%=      5-min Rain = 0
KDC1 161301Z 36004KT 10/M07 A299 RMK A01 T01021072  RH  029%=      5-min Rain = 0
KDC1 161302Z 35005KT 11/M07 A299 RMK A01 T01061072  RH  028%=      5-min Rain = 0
KDC1 161303Z 35004KT 11/M07 A299 RMK A01 T01071070  RH  028%=      5-min Rain = 0
KDC1 161304Z 00003KT 11/M07 A299 RMK A01 T01071070  RH  028%=      5-min Rain = 0
KDC1 161305Z 01003KT 11/M07 A299 RMK A01 T01081070  RH  028%=      5-min Rain = 0
KDC1 161306Z 01002KT 11/M07 A299 RMK A01 T01081067  RH  029%=      5-min Rain = 0
KDC1 161307Z 00002KT 11/M07 A299 RMK A01 T01081065  RH  029%=      5-min Rain = 0
KDC1 161308Z 01003KT 11/M07 A299 RMK A01 T01071066  RH  029%=      5-min Rain = 0
KDC1 161309Z 00002KT 11/M07 A299 RMK A01 T01071068  RH  028%=      5-min Rain = 0
KDC1 161310Z 01003KT 11/M07 A299 RMK A01 T01071069  RH  028%=      5-min Rain = 0
KDC1 161311Z 02002KT 11/M07 A299 RMK A01 T01071068  RH  029%=      5-min Rain = 0
KDC1 161312Z 02002KT 11/M07 A299 RMK A01 T01071067  RH  029%=      5-min Rain = 0
KDC1 161313Z 02002KT 11/M07 A299 RMK A01 T01071068  RH  029%=      5-min Rain = 0
KDC1 161314Z 03001KT 11/M07 A299 RMK A01 T01081069  RH  028%=      5-min Rain = 0
KDC1 161315Z 29000KT 11/M07 A299 RMK A01 T01101068  RH  028%=      5-min Rain = 0
KDC1 161316Z 29001KT 11/M06 A299 RMK A01 T01101064  RH  029%=      5-min Rain = 0
KDC1 161317Z 32001KT 11/M06 A299 RMK A01 T01101061  RH  030%=      5-min Rain = 0
KDC1 161318Z 35001KT 11/M06 A2991 RMK A01 T01101056  RH  031%=      5-min Rain = 0
KDC1 161319Z 35001KT 11/M05 A2991 RMK A01 T01091052  RH  032%=      5-min Rain = 0
KDC1 161320Z 34002KT 11/M05 A2991 RMK A01 T01081046  RH  034%=      5-min Rain = 0
KDC1 161321Z 35002KT 11/M04 A2991 RMK A01 T01061040  RH  035%=      5-min Rain = 0
KDC1 161322Z 35001KT 11/M04 A2991 RMK A01 T01061044  RH  035%=      5-min Rain = 0
KDC1 161323Z 31001KT 11/M04 A2991 RMK A01 T01071041  RH  035%=      5-min Rain = 0
KDC1 161324Z 31002KT 11/M04 A2991 RMK A01 T01091035  RH  036%=      5-min Rain = 0
KDC1 161325Z 32002KT 11/M03 A2991 RMK A01 T01091032  RH  037%=      5-min Rain = 0
KDC1 161326Z 30002KT 11/M03 A2991 RMK A01 T01091034  RH  036%=      5-min Rain = 0
KDC1 161327Z 31002KT 11/M04 A2991 RMK A01 T01101035  RH  036%=      5-min Rain = 0
KDC1 161328Z 29001KT 11/M04 A2991 RMK A01 T01121040  RH  034%=      5-min Rain = 0
KDC1 161329Z 29001KT 11/M04 A2991 RMK A01 T01141042  RH  033%=      5-min Rain = 0
KDC1 161330Z 28001KT 12/M05 A2991 RMK A01 T01161045  RH  032%=      5-min Rain = 0
KDC1 161331Z 28001KT 12/M05 A2991 RMK A01 T01181054  RH  030%=      5-min Rain = 0
KDC1 161332Z 28001KT 12/M06 A2991 RMK A01 T01201055  RH  029%=      5-min Rain = 0
KDC1 161333Z 28000KT 12/M06 A2991 RMK A01 T01221058  RH  028%=      5-min Rain = 0
KDC1 161334Z 27001KT 12/M05 A2991 RMK A01 T01231051  RH  029%=      5-min Rain = 0
KDC1 161335Z 25001KT 12/M05 A2991 RMK A01 T01241052  RH  029%=      5-min Rain = 0
KDC1 161336Z 24001KT 12/M05 A2991 RMK A01 T01241053  RH  029%=      5-min Rain = 0
KDC1 161337Z 22001KT 13/M05 A2991 RMK A01 T01251053  RH  028%=      5-min Rain = 0
KDC1 161338Z 21001KT 13/M05 A2991 RMK A01 T01251048  RH  029%=      5-min Rain = 0
KDC1 161339Z 19001KT 13/M05 A2991 RMK A01 T01251045  RH  030%=      5-min Rain = 0
KDC1 161340Z 19001KT 13/M05 A2991 RMK A01 T01251054  RH  028%=      5-min Rain = 0
KDC1 161341Z 18001KT 13/M05 A2991 RMK A01 T01261050  RH  029%=      5-min Rain = 0
KDC1 161342Z 22001KT 13/M04 A2991 RMK A01 T01271043  RH  030%=      5-min Rain = 0
KDC1 161343Z 18001KT 13/M04 A2991 RMK A01 T01281040  RH  031%=      5-min Rain = 0
KDC1 161344Z 17000KT 13/M04 A2991 RMK A01 T01291039  RH  031%=      5-min Rain = 0
KDC1 161345Z 24000KT 13/M04 A2991 RMK A01 T01311043  RH  030%=      5-min Rain = 0
KDC1 161346Z 21000KT 13/M05 A2991 RMK A01 T01321050  RH  028%=      5-min Rain = 0
KDC1 161347Z 18000KT 13/M05 A2991 RMK A01 T01341051  RH  027%=      5-min Rain = 0
KDC1 161348Z 17001KT 14/M05 A2991 RMK A01 T01351050  RH  027%=      5-min Rain = 0
KDC1 161349Z 18001KT 14/M05 A2991 RMK A01 T01371050  RH  027%=      5-min Rain = 0
KDC1 161350Z 18001KT 14/M05 A2991 RMK A01 T01371054  RH  026%=      5-min Rain = 0
KDC1 161351Z 18001KT 14/M06 A2991 RMK A01 T01371056  RH  026%=      5-min Rain = 0
KDC1 161352Z 17001KT 14/M06 A2992 RMK A01 T01371055  RH  026%=      5-min Rain = 0
KDC1 161353Z 17001KT 14/M06 A2992 RMK A01 T01381057  RH  025%=      5-min Rain = 0
KDC1 161354Z 19000KT 14/M06 A2992 RMK A01 T01391055  RH  026%=      5-min Rain = 0
KDC1 161355Z 19001KT 14/M05 A2992 RMK A01 T01401051  RH  026%=      5-min Rain = 0
KDC1 161356Z 18000KT 14/M05 A2992 RMK A01 T01401053  RH  026%=      5-min Rain = 0
KDC1 161357Z 19000KT 14/M05 A2992 RMK A01 T01411052  RH  026%=      5-min Rain = 0
KDC1 161358Z 19001KT 14/M05 A2992 RMK A01 T01421048  RH  026%=      5-min Rain = 0
KDC1 161359Z 15001KT 14/M04 A2992 RMK A01 T01431035  RH  029%=      5-min Rain = 0
KDC1 161400Z 16002KT 14/M02 A2992 RMK A01 T01441017  RH  033%=      5-min Rain = 0
KDC1 161401Z 17002KT 14/M01 A2992 RMK A01 T01441010  RH  035%=      5-min Rain = 0
KDC1 161402Z 17002KT 15/M03 A2992 RMK A01 T01451029  RH  030%=      5-min Rain = 0
KDC1 161403Z 17002KT 15/M05 A2992 RMK A01 T01451052  RH  025%=      5-min Rain = 0
KDC1 161404Z 17002KT 15/M06 A2992 RMK A01 T01451060  RH  024%=      5-min Rain = 0
KDC1 161405Z 16001KT 15/M06 A2992 RMK A01 T01461059  RH  024%=      5-min Rain = 0
KDC1 161406Z 17001KT 15/M06 A2992 RMK A01 T01481060  RH  023%=      5-min Rain = 0
KDC1 161407Z 15001KT 15/M06 A2992 RMK A01 T01491056  RH  024%=      5-min Rain = 0
KDC1 161408Z 14002KT 15/M04 A2992 RMK A01 T01501038  RH  027%=      5-min Rain = 0
KDC1 161409Z 14001KT 15/M04 A2992 RMK A01 T01501044  RH  026%=      5-min Rain = 0
KDC1 161410Z 14002KT 15/M05 A2992 RMK A01 T01521050  RH  025%=      5-min Rain = 0
KDC1 161411Z 14002KT 15/M03 A2992 RMK A01 T01541027  RH  029%=      5-min Rain = 0
KDC1 161412Z 15002KT 15/M02 A2992 RMK A01 T01541018  RH  031%=      5-min Rain = 0
KDC1 161413Z 15003KT 15/M03 A2992 RMK A01 T01531026  RH  029%=      5-min Rain = 0
KDC1 161414Z 15003KT 15/M05 A2992 RMK A01 T01521050  RH  024%=      5-min Rain = 0
KDC1 161415Z 15003KT 15/M06 A2992 RMK A01 T01511059  RH  023%=      5-min Rain = 0
KDC1 161416Z 16003KT 15/M06 A2992 RMK A01 T01511061  RH  023%=      5-min Rain = 0
KDC1 161417Z 16003KT 15/M07 A2992 RMK A01 T01511065  RH  022%=      5-min Rain = 0
KDC1 161418Z 17002KT 15/M06 A2992 RMK A01 T01511055  RH  024%=      5-min Rain = 0
KDC1 161419Z 19002KT 15/M04 A2992 RMK A01 T01511039  RH  027%=      5-min Rain = 0
KDC1 161420Z 18002KT 15/M04 A2992 RMK A01 T01501038  RH  027%=      5-min Rain = 0
KDC1 161421Z 16002KT 15/M06 A2992 RMK A01 T01501059  RH  023%=      5-min Rain = 0
KDC1 161422Z 16002KT 15/M05 A2992 RMK A01 T01501046  RH  025%=      5-min Rain = 0
KDC1 161423Z 15002KT 15/M04 A2992 RMK A01 T01511040  RH  027%=      5-min Rain = 0
KDC1 161424Z 16003KT 15/M06 A2992 RMK A01 T01511058  RH  023%=      5-min Rain = 0
KDC1 161425Z 17003KT 15/M06 A2992 RMK A01 T01511058  RH  023%=      5-min Rain = 0
KDC1 161426Z 18002KT 15/M06 A2992 RMK A01 T01521055  RH  024%=      5-min Rain = 0
KDC1 161427Z 18002KT 15/M06 A2992 RMK A01 T01521058  RH  023%=      5-min Rain = 0
KDC1 161428Z 19002KT 15/M06 A2992 RMK A01 T01521064  RH  022%=      5-min Rain = 0
KDC1 161429Z 18001KT 15/M06 A2992 RMK A01 T01521058  RH  023%=      5-min Rain = 0
KDC1 161430Z 19001KT 15/M05 A2992 RMK A01 T01531054  RH  024%=      5-min Rain = 0
KDC1 161431Z 18001KT 15/M06 A2992 RMK A01 T01531056  RH  023%=      5-min Rain = 0
KDC1 161432Z 18001KT 15/M05 A2992 RMK A01 T01541048  RH  024%=      5-min Rain = 0
KDC1 161433Z 17002KT 15/M06 A2992 RMK A01 T01541060  RH  022%=      5-min Rain = 0
KDC1 161434Z 17002KT 15/M06 A2992 RMK A01 T01541057  RH  023%=      5-min Rain = 0
KDC1 161435Z 18002KT 15/M05 A2992 RMK A01 T01541053  RH  024%=      5-min Rain = 0
KDC1 161436Z 18002KT 15/M05 A2992 RMK A01 T01541052  RH  024%=      5-min Rain = 0
KDC1 161437Z 17002KT 16/M06 A2992 RMK A01 T01551055  RH  023%=      5-min Rain = 0
KDC1 161438Z 17002KT 16/M07 A2992 RMK A01 T01551066  RH  021%=      5-min Rain = 0
KDC1 161439Z 17002KT 16/M06 A2992 RMK A01 T01561060  RH  022%=      5-min Rain = 0
KDC1 161440Z 17002KT 16/M06 A2992 RMK A01 T01571059  RH  022%=      5-min Rain = 0
KDC1 161441Z 16002KT 16/M05 A2992 RMK A01 T01581054  RH  023%=      5-min Rain = 0
KDC1 161442Z 16001KT 16/M05 A2992 RMK A01 T01581052  RH  023%=      5-min Rain = 0
KDC1 161443Z 15002KT 16/M06 A2992 RMK A01 T01591056  RH  022%=      5-min Rain = 0
KDC1 161444Z 15002KT 16/M04 A2992 RMK A01 T01591044  RH  024%=      5-min Rain = 0
KDC1 161445Z 16002KT 16/M04 A2992 RMK A01 T01591040  RH  025%=      5-min Rain = 0
KDC1 161446Z 16002KT 16/M05 A2992 RMK A01 T01601045  RH  024%=      5-min Rain = 0
KDC1 161447Z 17002KT 16/M04 A2992 RMK A01 T01591042  RH  025%=      5-min Rain = 0
KDC1 161448Z 17002KT 16/M04 A2992 RMK A01 T01591042  RH  025%=      5-min Rain = 0
KDC1 161449Z 18002KT 16/M05 A2992 RMK A01 T01591053  RH  023%=      5-min Rain = 0
KDC1 161450Z 19002KT 16/M06 A2992 RMK A01 T01591057  RH  022%=      5-min Rain = 0
KDC1 161451Z 18002KT 16/M06 A2992 RMK A01 T01591058  RH  022%=      5-min Rain = 0
KDC1 161452Z 18002KT 16/M07 A2992 RMK A01 T01591065  RH  021%=      5-min Rain = 0
KDC1 161453Z 19002KT 16/M07 A2992 RMK A01 T01591065  RH  021%=      5-min Rain = 0
KDC1 161454Z 18002KT 16/M06 A2992 RMK A01 T01591064  RH  021%=      5-min Rain = 0
KDC1 161455Z 19001KT 16/M06 A2992 RMK A01 T01591062  RH  021%=      5-min Rain = 0
KDC1 161456Z 19001KT 16/M05 A2992 RMK A01 T01601053  RH  023%=      5-min Rain = 0
KDC1 161457Z 18001KT 16/M06 A2992 RMK A01 T01611057  RH  022%=      5-min Rain = 0
KDC1 161458Z 18000KT 16/M05 A2992 RMK A01 T01611049  RH  023%=      5-min Rain = 0
KDC1 161459Z 26000KT 16/M04 A2993 RMK A01 T01621042  RH  024%=      5-min Rain = 0
KDC1 161500Z 26001KT 16/M06 A2993 RMK A01 T01621062  RH  021%=      5-min Rain = 0
KDC1 161501Z 25002KT 16/M08 A2993 RMK A01 T01631079  RH  018%=      5-min Rain = 0
KDC1 161502Z 24001KT 16/M09 A2993 RMK A01 T01631089  RH  017%=      5-min Rain = 0
KDC1 161503Z 25001KT 16/M09 A2993 RMK A01 T01641089  RH  017%=      5-min Rain = 0
KDC1 161504Z 24000KT 16/M09 A2993 RMK A01 T01641091  RH  017%=      5-min Rain = 0
KDC1 161505Z 00000KT 16/M09 A2993 RMK A01 T01641094  RH  016%=      5-min Rain = 0
KDC1 161506Z 00000KT 17/M09 A2993 RMK A01 T01661094  RH  016%=      5-min Rain = 0
KDC1 161507Z 00000KT 17/M09 A2993 RMK A01 T01681093  RH  016%=      5-min Rain = 0
KDC1 161508Z 00000KT 17/M09 A2993 RMK A01 T01691091  RH  016%=      5-min Rain = 0
KDC1 161509Z 00000KT 17/M09 A2993 RMK A01 T01711091  RH  016%=      5-min Rain = 0
KDC1 161510Z 00000KT 17/M09 A2993 RMK A01 T01731088  RH  016%=      5-min Rain = 0
KDC1 161511Z 25000KT 18/M08 A2993 RMK A01 T01751082  RH  017%=      5-min Rain = 0
KDC1 161512Z 26001KT 18/M08 A2993 RMK A01 T01771083  RH  016%=      5-min Rain = 0
KDC1 161513Z 26000KT 18/M09 A2993 RMK A01 T01761093  RH  015%=      5-min Rain = 0
KDC1 161514Z 28000KT 18/M10 A2993 RMK A01 T01751097  RH  015%=      5-min Rain = 0
KDC1 161515Z 00000KT 17/M10 A2993 RMK A01 T01741099  RH  015%=      5-min Rain = 0
KDC1 161516Z 36000KT 17/M10 A2993 RMK A01 T01741097  RH  015%=      5-min Rain = 0
KDC1 161517Z 00000KT 18/M09 A2993 RMK A01 T01751090  RH  016%=      5-min Rain = 0
KDC1 161518Z 00000KT 18/M09 A2993 RMK A01 T01751088  RH  016%=      5-min Rain = 0
KDC1 161519Z 01000KT 18/M09 A2993 RMK A01 T01751086  RH  016%=      5-min Rain = 0
KDC1 161520Z 34000KT 18/M08 A2993 RMK A01 T01751079  RH  017%=      5-min Rain = 0
KDC1 161521Z 34000KT 18/M08 A2993 RMK A01 T01751078  RH  017%=      5-min Rain = 0
KDC1 161522Z 06000KT 18/M08 A2993 RMK A01 T01751079  RH  017%=      5-min Rain = 0
KDC1 161523Z 14000KT 18/M07 A2993 RMK A01 T01751066  RH  019%=      5-min Rain = 0
KDC1 161524Z 14000KT 18/M05 A2993 RMK A01 T01751051  RH  021%=      5-min Rain = 0
KDC1 161525Z 12001KT 18/M04 A2993 RMK A01 T01751040  RH  023%=      5-min Rain = 0
KDC1 161526Z 12002KT 18/M03 A2993 RMK A01 T01751026  RH  025%=      5-min Rain = 0
KDC1 161527Z 10003KT 17/M03 A2993 RMK A01 T01741027  RH  025%=      5-min Rain = 0
KDC1 161528Z 09002KT 17/M05 A2993 RMK A01 T01721047  RH  022%=      5-min Rain = 0
KDC1 161529Z 08002KT 17/M06 A2993 RMK A01 T01711058  RH  020%=      5-min Rain = 0
KDC1 161530Z 07001KT 17/M06 A2993 RMK A01 T01701058  RH  020%=      5-min Rain = 0
KDC1 161531Z 10002KT 17/M05 A2993 RMK A01 T01691046  RH  023%=      5-min Rain = 0
KDC1 161532Z 11002KT 17/M04 A2993 RMK A01 T01691040  RH  024%=      5-min Rain = 0
KDC1 161533Z 09002KT 17/M04 A2993 RMK A01 T01701044  RH  023%=      5-min Rain = 0
KDC1 161534Z 11003KT 17/M03 A2993 RMK A01 T01721031  RH  025%=      5-min Rain = 0
KDC1 161535Z 12003KT 17/M02 A2993 RMK A01 T01711022  RH  027%=      5-min Rain = 0
KDC1 161536Z 11004KT 17/M03 A2993 RMK A01 T01701029  RH  026%=      5-min Rain = 0
KDC1 161537Z 12003KT 17/M04 A2993 RMK A01 T01701036  RH  024%=      5-min Rain = 0
KDC1 161538Z 11004KT 17/M02 A2993 RMK A01 T01701023  RH  027%=      5-min Rain = 0
KDC1 161539Z 11003KT 17/M02 A2993 RMK A01 T01701016  RH  028%=      5-min Rain = 0
KDC1 161540Z 11003KT 17/M01 A2993 RMK A01 T01691014  RH  029%=      5-min Rain = 0
KDC1 161541Z 11003KT 17/M01 A2993 RMK A01 T01691014  RH  029%=      5-min Rain = 0
KDC1 161542Z 11004KT 17/M02 A2993 RMK A01 T01691024  RH  027%=      5-min Rain = 0
KDC1 161543Z 11004KT 17/M02 A2993 RMK A01 T01691021  RH  027%=      5-min Rain = 0
KDC1 161544Z 10005KT 17/M02 A2993 RMK A01 T01701017  RH  028%=      5-min Rain = 0
KDC1 161545Z 10006KT 17/M02 A2993 RMK A01 T01691021  RH  027%=      5-min Rain = 0
KDC1 161546Z 10005KT 17/M02 A2993 RMK A01 T01691023  RH  027%=      5-min Rain = 0
KDC1 161547Z 10005KT 17/M03 A2993 RMK A01 T01691025  RH  026%=      5-min Rain = 0
KDC1 161548Z 11004KT 17/M02 A2993 RMK A01 T01691024  RH  027%=      5-min Rain = 0
KDC1 161549Z 11004KT 17/M03 A2993 RMK A01 T01701027  RH  026%=      5-min Rain = 0
KDC1 161550Z 11003KT 17/M02 A2993 RMK A01 T01701018  RH  028%=      5-min Rain = 0
KDC1 161551Z 12004KT 17/M04 A2993 RMK A01 T01701040  RH  023%=      5-min Rain = 0
KDC1 161552Z 12004KT 17/M04 A2993 RMK A01 T01711043  RH  023%=      5-min Rain = 0
KDC1 161553Z 11004KT 17/M04 A2993 RMK A01 T01721038  RH  024%=      5-min Rain = 0
KDC1 161554Z 11004KT 17/M04 A2994 RMK A01 T01721039  RH  023%=      5-min Rain = 0
KDC1 161555Z 12003KT 17/M04 A2994 RMK A01 T01721038  RH  024%=      5-min Rain = 0
KDC1 161556Z 12003KT 17/M04 A2994 RMK A01 T01721042  RH  023%=      5-min Rain = 0
KDC1 161557Z 11003KT 17/M04 A2994 RMK A01 T01721035  RH  024%=      5-min Rain = 0
KDC1 161558Z 12003KT 17/M03 A2994 RMK A01 T01731033  RH  024%=      5-min Rain = 0
KDC1 161559Z 13004KT 17/M03 A2994 RMK A01 T01741033  RH  024%=      5-min Rain = 0
KDC1 161600Z 12004KT 18/M03 A2994 RMK A01 T01761033  RH  024%=      5-min Rain = 0
KDC1 161601Z 13004KT 18/M03 A2994 RMK A01 T01771029  RH  025%=      5-min Rain = 0
KDC1 161602Z 13004KT 18/M03 A2994 RMK A01 T01781030  RH  024%=      5-min Rain = 0
KDC1 161603Z 12005KT 18/M04 A2993 RMK A01 T01781036  RH  023%=      5-min Rain = 0
KDC1 161604Z 13004KT 18/M04 A2993 RMK A01 T01791041  RH  022%=      5-min Rain = 0
KDC1 161605Z 13004KT 18/M04 A2993 RMK A01 T01791036  RH  023%=      5-min Rain = 0
KDC1 161606Z 14003KT 18/M05 A2993 RMK A01 T01801046  RH  021%=      5-min Rain = 0
KDC1 161607Z 14003KT 18/M05 A2994 RMK A01 T01801053  RH  020%=      5-min Rain = 0
KDC1 161608Z 14003KT 18/M06 A2994 RMK A01 T01811063  RH  018%=      5-min Rain = 0
KDC1 161609Z 15003KT 18/M06 A2994 RMK A01 T01811063  RH  018%=      5-min Rain = 0
KDC1 161610Z 13002KT 18/M07 A2994 RMK A01 T01821066  RH  018%=      5-min Rain = 0
KDC1 161611Z 10001KT 18/M07 A2994 RMK A01 T01831065  RH  018%=      5-min Rain = 0
KDC1 161612Z 08000KT 18/M07 A2994 RMK A01 T01831065  RH  018%=      5-min Rain = 0
KDC1 161613Z 11001KT 18/M07 A2994 RMK A01 T01841066  RH  018%=      5-min Rain = 0
KDC1 161614Z 11002KT 18/M08 A2994 RMK A01 T01841075  RH  016%=      5-min Rain = 0
KDC1 161615Z 08003KT 19/M07 A2994 RMK A01 T01851073  RH  017%=      5-min Rain = 0
KDC1 161616Z 11002KT 18/M07 A2994 RMK A01 T01841068  RH  017%=      5-min Rain = 0
KDC1 161617Z 09003KT 19/M07 A2994 RMK A01 T01851065  RH  018%=      5-min Rain = 0
KDC1 161618Z 09001KT 18/M07 A2994 RMK A01 T01841072  RH  017%=      5-min Rain = 0
KDC1 161619Z 10002KT 18/M07 A2994 RMK A01 T01831068  RH  017%=      5-min Rain = 0
KDC1 161620Z 11002KT 18/M06 A2994 RMK A01 T01831061  RH  018%=      5-min Rain = 0
KDC1 161621Z 10003KT 18/M06 A2994 RMK A01 T01831062  RH  018%=      5-min Rain = 0
KDC1 161622Z 11003KT 18/M06 A2993 RMK A01 T01831060  RH  019%=      5-min Rain = 0
KDC1 161623Z 11004KT 18/M06 A2993 RMK A01 T01831062  RH  018%=      5-min Rain = 0
KDC1 161624Z 10004KT 18/M05 A2993 RMK A01 T01831053  RH  020%=      5-min Rain = 0
KDC1 161625Z 08003KT 18/M06 A2994 RMK A01 T01831064  RH  018%=      5-min Rain = 0
KDC1 161626Z 09002KT 18/M08 A2994 RMK A01 T01841075  RH  017%=      5-min Rain = 0
KDC1 161627Z 10004KT 19/M05 A2994 RMK A01 T01851050  RH  020%=      5-min Rain = 0
KDC1 161628Z 09003KT 19/M04 A2994 RMK A01 T01861039  RH  021%=      5-min Rain = 0
KDC1 161629Z 11003KT 19/M06 A2994 RMK A01 T01871064  RH  018%=      5-min Rain = 0
KDC1 161630Z 12003KT 19/M05 A2994 RMK A01 T01861049  RH  020%=      5-min Rain = 0
KDC1 161631Z 12003KT 19/M05 A2994 RMK A01 T01861051  RH  020%=      5-min Rain = 0
KDC1 161632Z 13002KT 19/M04 A2994 RMK A01 T01851044  RH  021%=      5-min Rain = 0
KDC1 161633Z 13002KT 19/M05 A2994 RMK A01 T01851050  RH  020%=      5-min Rain = 0
KDC1 161634Z 13003KT 19/M05 A2994 RMK A01 T01861047  RH  020%=      5-min Rain = 0
KDC1 161635Z 11003KT 19/M05 A2994 RMK A01 T01871051  RH  020%=      5-min Rain = 0
KDC1 161636Z 12003KT 19/M06 A2994 RMK A01 T01871057  RH  019%=      5-min Rain = 0
KDC1 161637Z 12003KT 19/M06 A2994 RMK A01 T01871060  RH  018%=      5-min Rain = 0
KDC1 161638Z 13003KT 19/M07 A2994 RMK A01 T01871066  RH  017%=      5-min Rain = 0
KDC1 161639Z 13003KT 19/M06 A2994 RMK A01 T01871063  RH  018%=      5-min Rain = 0
KDC1 161640Z 13003KT 19/M06 A2994 RMK A01 T01871057  RH  019%=      5-min Rain = 0
KDC1 161641Z 12003KT 19/M06 A2994 RMK A01 T01871056  RH  019%=      5-min Rain = 0
KDC1 161642Z 13003KT 19/M06 A2994 RMK A01 T01861062  RH  018%=      5-min Rain = 0
KDC1 161643Z 11003KT 19/M06 A2994 RMK A01 T01861064  RH  018%=      5-min Rain = 0
KDC1 161644Z 11002KT 19/M06 A2994 RMK A01 T01861062  RH  018%=      5-min Rain = 0
KDC1 161645Z 09003KT 19/M07 A2994 RMK A01 T01871065  RH  017%=      5-min Rain = 0
KDC1 161646Z 09003KT 19/M07 A2994 RMK A01 T01871073  RH  016%=      5-min Rain = 0
KDC1 161647Z 11002KT 19/M07 A2994 RMK A01 T01871070  RH  017%=      5-min Rain = 0
KDC1 161648Z 10002KT 19/M07 A2994 RMK A01 T01881068  RH  017%=      5-min Rain = 0
KDC1 161649Z 09002KT 19/M07 A2994 RMK A01 T01891071  RH  016%=      5-min Rain = 0
KDC1 161650Z 08002KT 19/M07 A2994 RMK A01 T01901071  RH  016%=      5-min Rain = 0
KDC1 161651Z 09002KT 19/M07 A2994 RMK A01 T01911070  RH  016%=      5-min Rain = 0
KDC1 161652Z 08003KT 19/M07 A2994 RMK A01 T01921067  RH  017%=      5-min Rain = 0
KDC1 161653Z 07002KT 19/M07 A2994 RMK A01 T01911068  RH  017%=      5-min Rain = 0
KDC1 161654Z 05002KT 19/M08 A2994 RMK A01 T01911078  RH  015%=      5-min Rain = 0
KDC1 161655Z 03002KT 19/M07 A2994 RMK A01 T01921074  RH  016%=      5-min Rain = 0
KDC1 161656Z 03003KT 19/M09 A2994 RMK A01 T01931088  RH  014%=      5-min Rain = 0
KDC1 161657Z 06003KT 19/M10 A2994 RMK A01 T01941097  RH  013%=      5-min Rain = 0
KDC1 161658Z 04003KT 20/M10 A2994 RMK A01 T01951098  RH  013%=      5-min Rain = 0
KDC1 161659Z 10002KT 20/M08 A2994 RMK A01 T01951081  RH  015%=      5-min Rain = 0
KDC1 161700Z 12003KT 20/M06 A2994 RMK A01 T01951055  RH  018%=      5-min Rain = 0
KDC1 161701Z 11004KT 20/M05 A2994 RMK A01 T01951051  RH  018%=      5-min Rain = 0
KDC1 161702Z 11005KT 19/M04 A2994 RMK A01 T01941044  RH  020%=      5-min Rain = 0
KDC1 161703Z 10004KT 19/M05 A2994 RMK A01 T01921045  RH  020%=      5-min Rain = 0
KDC1 161704Z 11005KT 19/M05 A2994 RMK A01 T01911045  RH  020%=      5-min Rain = 0
KDC1 161705Z 12004KT 19/M05 A2994 RMK A01 T01911048  RH  019%=      5-min Rain = 0
KDC1 161706Z 14003KT 19/M05 A2994 RMK A01 T01911050  RH  019%=      5-min Rain = 0
KDC1 161707Z 14004KT 19/M06 A2994 RMK A01 T01921057  RH  018%=      5-min Rain = 0
KDC1 161708Z 14003KT 19/M06 A2994 RMK A01 T01931057  RH  018%=      5-min Rain = 0
KDC1 161709Z 12003KT 19/M06 A2994 RMK A01 T01931061  RH  017%=      5-min Rain = 0
KDC1 161710Z 11001KT 19/M08 A2994 RMK A01 T01931076  RH  015%=      5-min Rain = 0
KDC1 161711Z 11002KT 19/M08 A2994 RMK A01 T01941080  RH  015%=      5-min Rain = 0
KDC1 161712Z 11002KT 19/M07 A2994 RMK A01 T01941068  RH  016%=      5-min Rain = 0
KDC1 161713Z 09002KT 20/M06 A2994 RMK A01 T01951063  RH  017%=      5-min Rain = 0
KDC1 161714Z 06003KT 20/M07 A2994 RMK A01 T01951072  RH  016%=      5-min Rain = 0
KDC1 161715Z 08003KT 20/M08 A2994 RMK A01 T01961082  RH  014%=      5-min Rain = 0
KDC1 161716Z 09002KT 20/M07 A2994 RMK A01 T01961074  RH  015%=      5-min Rain = 0
KDC1 161717Z 06002KT 20/M08 A2994 RMK A01 T01961076  RH  015%=      5-min Rain = 0
KDC1 161718Z 04003KT 20/M09 A2994 RMK A01 T01971092  RH  013%=      5-min Rain = 0
KDC1 161719Z 03001KT 20/M10 A2994 RMK A01 T01981095  RH  013%=      5-min Rain = 0
KDC1 161720Z 10001KT 20/M09 A2994 RMK A01 T01981085  RH  014%=      5-min Rain = 0
KDC1 161721Z 10003KT 20/M07 A2994 RMK A01 T01981065  RH  016%=      5-min Rain = 0
KDC1 161722Z 10004KT 20/M07 A2994 RMK A01 T01981068  RH  016%=      5-min Rain = 0
KDC1 161723Z 10003KT 20/M07 A2994 RMK A01 T01971071  RH  016%=      5-min Rain = 0
KDC1 161724Z 10004KT 20/M06 A2994 RMK A01 T01951063  RH  017%=      5-min Rain = 0
KDC1 161725Z 09004KT 20/M05 A2994 RMK A01 T01951046  RH  019%=      5-min Rain = 0
KDC1 161726Z 07004KT 20/M05 A2994 RMK A01 T01951052  RH  018%=      5-min Rain = 0
KDC1 161727Z 08004KT 20/M06 A2994 RMK A01 T01951055  RH  018%=      5-min Rain = 0
KDC1 161728Z 07003KT 20/M05 A2994 RMK A01 T01951051  RH  018%=      5-min Rain = 0
KDC1 161729Z 06004KT 20/M07 A2994 RMK A01 T01961074  RH  015%=      5-min Rain = 0
KDC1 161730Z 06005KT 20/M07 A2994 RMK A01 T01961074  RH  015%=      5-min Rain = 0
KDC1 161731Z 05004KT 20/M08 A2994 RMK A01 T01961079  RH  015%=      5-min Rain = 0
KDC1 161732Z 05004KT 20/M08 A2994 RMK A01 T01961084  RH  014%=      5-min Rain = 0
KDC1 161733Z 06004KT 20/M09 A2994 RMK A01 T01961085  RH  014%=      5-min Rain = 0
KDC1 161734Z 06003KT 20/M09 A2994 RMK A01 T01961087  RH  014%=      5-min Rain = 0
KDC1 161735Z 08003KT 20/M08 A2994 RMK A01 T01961082  RH  014%=      5-min Rain = 0
KDC1 161736Z 08004KT 20/M08 A2994 RMK A01 T01961081  RH  015%=      5-min Rain = 0
KDC1 161737Z 07004KT 20/M08 A2994 RMK A01 T01961077  RH  015%=      5-min Rain = 0
KDC1 161738Z 07004KT 20/M07 A2994 RMK A01 T01961072  RH  016%=      5-min Rain = 0
KDC1 161739Z 07005KT 20/M07 A2994 RMK A01 T01961066  RH  016%=      5-min Rain = 0
KDC1 161740Z 07004KT 20/M06 A2994 RMK A01 T01951060  RH  017%=      5-min Rain = 0
KDC1 161741Z 08005KT 20/M05 A2994 RMK A01 T01961047  RH  019%=      5-min Rain = 0
KDC1 161742Z 07006KT 20/M05 A2994 RMK A01 T01961045  RH  019%=      5-min Rain = 0
KDC1 161743Z 07006KT 20/M05 A2993 RMK A01 T01951049  RH  019%=      5-min Rain = 0
KDC1 161744Z 08006KT 19/M05 A2993 RMK A01 T01941047  RH  019%=      5-min Rain = 0
KDC1 161745Z 07005KT 19/M04 A2993 RMK A01 T01931043  RH  020%=      5-min Rain = 0
KDC1 161746Z 06005KT 19/M05 A2993 RMK A01 T01941052  RH  018%=      5-min Rain = 0
KDC1 161747Z 06004KT 19/M05 A2993 RMK A01 T01941050  RH  019%=      5-min Rain = 0
KDC1 161748Z 07005KT 20/M05 A2993 RMK A01 T01951049  RH  019%=      5-min Rain = 0
KDC1 161749Z 06004KT 19/M05 A2993 RMK A01 T01941049  RH  019%=      5-min Rain = 0
KDC1 161750Z 06005KT 20/M06 A2993 RMK A01 T01961055  RH  018%=      5-min Rain = 0
KDC1 161751Z 06004KT 20/M05 A2993 RMK A01 T01971053  RH  018%=      5-min Rain = 0
KDC1 161752Z 07004KT 20/M06 A2993 RMK A01 T01981056  RH  018%=      5-min Rain = 0
KDC1 161753Z 07004KT 20/M06 A2993 RMK A01 T01981055  RH  018%=      5-min Rain = 0
KDC1 161754Z 07005KT 20/M05 A2993 RMK A01 T01991054  RH  018%=      5-min Rain = 0
KDC1 161755Z 08004KT 20/M06 A2993 RMK A01 T01991056  RH  017%=      5-min Rain = 0
KDC1 161756Z 08004KT 20/M06 A2993 RMK A01 T01991055  RH  018%=      5-min Rain = 0
KDC1 161757Z 08004KT 20/M05 A2993 RMK A01 T01981054  RH  018%=      5-min Rain = 0
KDC1 161758Z 08005KT 20/M05 A2993 RMK A01 T01991051  RH  018%=      5-min Rain = 0
KDC1 161759Z 08005KT 20/M05 A2993 RMK A01 T02001049  RH  018%=      5-min Rain = 0
KDC1 161800Z 07005KT 20/M04 A2993 RMK A01 T02001044  RH  019%=      5-min Rain = 0
KDC1 161801Z 07005KT 20/M05 A2993 RMK A01 T02001049  RH  018%=      5-min Rain = 0
KDC1 161802Z 07006KT 20/M05 A2993 RMK A01 T02011048  RH  018%=      5-min Rain = 0
KDC1 161803Z 08006KT 20/M05 A2993 RMK A01 T01991051  RH  018%=      5-min Rain = 0
KDC1 161804Z 07005KT 20/M05 A2993 RMK A01 T01991054  RH  018%=      5-min Rain = 0
KDC1 161805Z 07005KT 20/M05 A2993 RMK A01 T02001053  RH  018%=      5-min Rain = 0
KDC1 161806Z 06005KT 20/M06 A2993 RMK A01 T02001059  RH  017%=      5-min Rain = 0
KDC1 161807Z 07005KT 20/M06 A2993 RMK A01 T02001062  RH  016%=      5-min Rain = 0
KDC1 161808Z 07005KT 20/M06 A2993 RMK A01 T02021064  RH  016%=      5-min Rain = 0
KDC1 161809Z 07004KT 20/M06 A2993 RMK A01 T02021060  RH  017%=      5-min Rain = 0
KDC1 161810Z 08006KT 20/M06 A2993 RMK A01 T02031060  RH  016%=      5-min Rain = 0
KDC1 161811Z 08006KT 20/M06 A2993 RMK A01 T02031057  RH  017%=      5-min Rain = 0
KDC1 161812Z 08005KT 20/M06 A2993 RMK A01 T02041057  RH  017%=      5-min Rain = 0
KDC1 161813Z 09004KT 20/M06 A2993 RMK A01 T02021060  RH  017%=      5-min Rain = 0
KDC1 161814Z 09005KT 20/M06 A2993 RMK A01 T02031060  RH  016%=      5-min Rain = 0
KDC1 161815Z 10006KT 21/M07 A2993 RMK A01 T02051065  RH  016%=      5-min Rain = 0
KDC1 161816Z 08005KT 20/M07 A2993 RMK A01 T02041068  RH  015%=      5-min Rain = 0
KDC1 161817Z 09005KT 20/M07 A2994 RMK A01 T02041067  RH  015%=      5-min Rain = 0
KDC1 161818Z 09005KT 21/M07 A2994 RMK A01 T02061065  RH  016%=      5-min Rain = 0
KDC1 161819Z 09004KT 21/M06 A2994 RMK A01 T02051062  RH  016%=      5-min Rain = 0
KDC1 161820Z 10005KT 21/M06 A2993 RMK A01 T02051061  RH  016%=      5-min Rain = 0
KDC1 161821Z 09004KT 21/M06 A2993 RMK A01 T02061064  RH  016%=      5-min Rain = 0
KDC1 161822Z 08005KT 21/M06 A2993 RMK A01 T02081064  RH  015%=      5-min Rain = 0
KDC1 161823Z 09005KT 21/M07 A2993 RMK A01 T02071072  RH  015%=      5-min Rain = 0
KDC1 161824Z 09006KT 21/M07 A2993 RMK A01 T02061071  RH  015%=      5-min Rain = 0
KDC1 161825Z 09006KT 21/M07 A2993 RMK A01 T02051073  RH  015%=      5-min Rain = 0
KDC1 161826Z 10007KT 21/M06 A2993 RMK A01 T02051062  RH  016%=      5-min Rain = 0
KDC1 161827Z 09007KT 21/M07 A2993 RMK A01 T02051065  RH  016%=      5-min Rain = 0
KDC1 161828Z 09007KT 21/M07 A2993 RMK A01 T02051069  RH  015%=      5-min Rain = 0
KDC1 161829Z 10005KT 20/M06 A2993 RMK A01 T02041064  RH  016%=      5-min Rain = 0
KDC1 161830Z 10006KT 21/M06 A2993 RMK A01 T02051063  RH  016%=      5-min Rain = 0
KDC1 161831Z 12005KT 21/M07 A2993 RMK A01 T02061074  RH  015%=      5-min Rain = 0
KDC1 161832Z 10006KT 21/M07 A2993 RMK A01 T02061071  RH  015%=      5-min Rain = 0
KDC1 161833Z 12005KT 20/M06 A2993 RMK A01 T02041064  RH  016%=      5-min Rain = 0
KDC1 161834Z 12005KT 20/M06 A2993 RMK A01 T02041060  RH  016%=      5-min Rain = 0
KDC1 161835Z 12006KT 20/M07 A2993 RMK A01 T02041065  RH  016%=      5-min Rain = 0
KDC1 161836Z 11006KT 20/M07 A2993 RMK A01 T02031068  RH  015%=      5-min Rain = 0
KDC1 161837Z 11006KT 20/M07 A2993 RMK A01 T02031072  RH  015%=      5-min Rain = 0
KDC1 161838Z 12005KT 20/M07 A2993 RMK A01 T02031074  RH  015%=      5-min Rain = 0
KDC1 161839Z 12006KT 20/M07 A2993 RMK A01 T02031066  RH  016%=      5-min Rain = 0
KDC1 161840Z 13006KT 20/M05 A2993 RMK A01 T02041051  RH  018%=      5-min Rain = 0
KDC1 161841Z 13006KT 21/M05 A2993 RMK A01 T02051053  RH  017%=      5-min Rain = 0
KDC1 161842Z 12006KT 20/M06 A2993 RMK A01 T02041055  RH  017%=      5-min Rain = 0
KDC1 161843Z 12006KT 20/M06 A2993 RMK A01 T02031059  RH  016%=      5-min Rain = 0
KDC1 161844Z 12006KT 20/M07 A2993 RMK A01 T02031067  RH  016%=      5-min Rain = 0
KDC1 161845Z 12006KT 20/M07 A2993 RMK A01 T02021068  RH  015%=      5-min Rain = 0
KDC1 161846Z 12005KT 20/M06 A2993 RMK A01 T02031062  RH  016%=      5-min Rain = 0
KDC1 161847Z 11005KT 21/M07 A2993 RMK A01 T02061069  RH  015%=      5-min Rain = 0
KDC1 161848Z 09004KT 21/M08 A2993 RMK A01 T02061084  RH  013%=      5-min Rain = 0
KDC1 161849Z 11004KT 21/M09 A2993 RMK A01 T02071085  RH  013%=      5-min Rain = 0
KDC1 161850Z 11004KT 21/M07 A2993 RMK A01 T02071070  RH  015%=      5-min Rain = 0
KDC1 161851Z 10005KT 21/M06 A2993 RMK A01 T02071062  RH  016%=      5-min Rain = 0
KDC1 161852Z 09005KT 21/M07 A2993 RMK A01 T02061068  RH  015%=      5-min Rain = 0
KDC1 161853Z 10005KT 21/M07 A2993 RMK A01 T02061073  RH  015%=      5-min Rain = 0
KDC1 161854Z 12004KT 21/M07 A2993 RMK A01 T02071071  RH  015%=      5-min Rain = 0
KDC1 161855Z 13005KT 21/M06 A2993 RMK A01 T02081062  RH  016%=      5-min Rain = 0
KDC1 161856Z 12005KT 21/M06 A2993 RMK A01 T02091063  RH  015%=      5-min Rain = 0
KDC1 161857Z 12005KT 21/M07 A2993 RMK A01 T02081070  RH  015%=      5-min Rain = 0
KDC1 161858Z 12005KT 21/M07 A2992 RMK A01 T02071072  RH  015%=      5-min Rain = 0
KDC1 161859Z 11005KT 21/M08 A2992 RMK A01 T02071084  RH  013%=      5-min Rain = 0
KDC1 161900Z 11006KT 21/M08 A2992 RMK A01 T02071077  RH  014%=      5-min Rain = 0
KDC1 161901Z 11006KT 21/M06 A2992 RMK A01 T02081058  RH  016%=      5-min Rain = 0
KDC1 161902Z 12006KT 21/M08 A2992 RMK A01 T02091081  RH  013%=      5-min Rain = 0
KDC1 161903Z 12006KT 21/M09 A2992 RMK A01 T02091086  RH  013%=      5-min Rain = 0
KDC1 161904Z 12006KT 21/M08 A2992 RMK A01 T02091079  RH  014%=      5-min Rain = 0
KDC1 161905Z 12005KT 21/M07 A2992 RMK A01 T02101073  RH  014%=      5-min Rain = 0
KDC1 161906Z 11006KT 21/M09 A2992 RMK A01 T02111091  RH  012%=      5-min Rain = 0
KDC1 161907Z 10006KT 21/M09 A2992 RMK A01 T02121087  RH  013%=      5-min Rain = 0
KDC1 161908Z 10006KT 21/M10 A2992 RMK A01 T02121099  RH  011%=      5-min Rain = 0
KDC1 161909Z 09006KT 21/M10 A2992 RMK A01 T02121102  RH  011%=      5-min Rain = 0
KDC1 161910Z 11007KT 21/M09 A2992 RMK A01 T02121094  RH  012%=      5-min Rain = 0
KDC1 161911Z 12007KT 21/M09 A2992 RMK A01 T02121090  RH  012%=      5-min Rain = 0
KDC1 161912Z 12008KT 21/M09 A2992 RMK A01 T02121085  RH  013%=      5-min Rain = 0
KDC1 161913Z 12007KT 21/M07 A2991 RMK A01 T02131065  RH  015%=      5-min Rain = 0
KDC1 161914Z 11007KT 21/M06 A2991 RMK A01 T02131059  RH  016%=      5-min Rain = 0
KDC1 161915Z 12007KT 21/M07 A2991 RMK A01 T02121069  RH  015%=      5-min Rain = 0
KDC1 161916Z 12007KT 21/M07 A2991 RMK A01 T02121066  RH  015%=      5-min Rain = 0
KDC1 161917Z 11007KT 21/M07 A2991 RMK A01 T02121072  RH  014%=      5-min Rain = 0
KDC1 161918Z 12006KT 21/M06 A2991 RMK A01 T02131060  RH  015%=      5-min Rain = 0
KDC1 161919Z 12007KT 21/M05 A2991 RMK A01 T02131053  RH  016%=      5-min Rain = 0
KDC1 161920Z 12007KT 21/M06 A2991 RMK A01 T02131058  RH  016%=      5-min Rain = 0
KDC1 161921Z 13006KT 21/M06 A2991 RMK A01 T02121056  RH  016%=      5-min Rain = 0
KDC1 161922Z 10006KT 21/M07 A2991 RMK A01 T02131069  RH  014%=      5-min Rain = 0
KDC1 161923Z 10006KT 21/M09 A2992 RMK A01 T02131085  RH  013%=      5-min Rain = 0
KDC1 161924Z 10005KT 21/M08 A2992 RMK A01 T02121084  RH  013%=      5-min Rain = 0
KDC1 161925Z 09006KT 21/M08 A2992 RMK A01 T02121077  RH  014%=      5-min Rain = 0
KDC1 161926Z 10006KT 21/M08 A2992 RMK A01 T02121079  RH  013%=      5-min Rain = 0
KDC1 161927Z 11008KT 21/M09 A2991 RMK A01 T02121087  RH  013%=      5-min Rain = 0
KDC1 161928Z 10006KT 21/M09 A2991 RMK A01 T02121089  RH  012%=      5-min Rain = 0
KDC1 161929Z 11007KT 21/M09 A2991 RMK A01 T02121087  RH  013%=      5-min Rain = 0
KDC1 161930Z 12007KT 21/M08 A2991 RMK A01 T02121077  RH  014%=      5-min Rain = 0
KDC1 161931Z 12007KT 21/M08 A2991 RMK A01 T02121076  RH  014%=      5-min Rain = 0
KDC1 161932Z 13007KT 21/M08 A2991 RMK A01 T02121084  RH  013%=      5-min Rain = 0
KDC1 161933Z 12007KT 21/M08 A2991 RMK A01 T02111081  RH  013%=      5-min Rain = 0
KDC1 161934Z 12005KT 21/M09 A2991 RMK A01 T02101088  RH  013%=      5-min Rain = 0
KDC1 161935Z 14005KT 21/M08 A2992 RMK A01 T02101082  RH  013%=      5-min Rain = 0
KDC1 161936Z 14006KT 21/M08 A2992 RMK A01 T02121075  RH  014%=      5-min Rain = 0
KDC1 161937Z 14005KT 21/M07 A2992 RMK A01 T02131071  RH  014%=      5-min Rain = 0
KDC1 161938Z 12006KT 21/M08 A2992 RMK A01 T02141081  RH  013%=      5-min Rain = 0
KDC1 161939Z 13006KT 21/M08 A2992 RMK A01 T02141081  RH  013%=      5-min Rain = 0
KDC1 161940Z 11005KT 21/M08 A2992 RMK A01 T02131082  RH  013%=      5-min Rain = 0
KDC1 161941Z 12006KT 21/M07 A2992 RMK A01 T02131073  RH  014%=      5-min Rain = 0
KDC1 161942Z 13006KT 21/M07 A2992 RMK A01 T02131071  RH  014%=      5-min Rain = 0
KDC1 161943Z 13006KT 21/M08 A2992 RMK A01 T02141077  RH  014%=      5-min Rain = 0
KDC1 161944Z 13006KT 21/M07 A2992 RMK A01 T02141072  RH  014%=      5-min Rain = 0
KDC1 161945Z 13007KT 21/M08 A2992 RMK A01 T02141078  RH  013%=      5-min Rain = 0
KDC1 161946Z 13007KT 22/M07 A2992 RMK A01 T02151072  RH  014%=      5-min Rain = 0
KDC1 161947Z 12006KT 22/M08 A2992 RMK A01 T02151077  RH  013%=      5-min Rain = 0
KDC1 161948Z 13005KT 22/M08 A2991 RMK A01 T02151078  RH  013%=      5-min Rain = 0
KDC1 161949Z 11006KT 22/M07 A2991 RMK A01 T02151074  RH  014%=      5-min Rain = 0
KDC1 161950Z 11006KT 22/M09 A2991 RMK A01 T02161085  RH  012%=      5-min Rain = 0
KDC1 161951Z 11008KT 22/M08 A2991 RMK A01 T02151083  RH  013%=      5-min Rain = 0
KDC1 161952Z 11007KT 22/M08 A2991 RMK A01 T02161082  RH  013%=      5-min Rain = 0
KDC1 161953Z 11007KT 22/M07 A2991 RMK A01 T02161072  RH  014%=      5-min Rain = 0
KDC1 161954Z 11007KT 22/M07 A299 RMK A01 T02151068  RH  014%=      5-min Rain = 0
KDC1 161955Z 11007KT 22/M07 A299 RMK A01 T02151068  RH  014%=      5-min Rain = 0
KDC1 161956Z 11006KT 22/M08 A299 RMK A01 T02151079  RH  013%=      5-min Rain = 0
KDC1 161957Z 11006KT 21/M08 A299 RMK A01 T02141078  RH  013%=      5-min Rain = 0
KDC1 161958Z 11006KT 21/M09 A299 RMK A01 T02141085  RH  013%=      5-min Rain = 0
KDC1 161959Z 10007KT 22/M09 A299 RMK A01 T02151091  RH  012%=      5-min Rain = 0
KDC1 162000Z 11006KT 22/M09 A299 RMK A01 T02161087  RH  012%=      5-min Rain = 0
KDC1 162001Z 11006KT 22/M09 A299 RMK A01 T02171091  RH  012%=      5-min Rain = 0
KDC1 162002Z 10006KT 22/M09 A299 RMK A01 T02181093  RH  012%=      5-min Rain = 0
KDC1 162003Z 11006KT 22/M09 A299 RMK A01 T02191094  RH  011%=      5-min Rain = 0
KDC1 162004Z 12006KT 22/M09 A299 RMK A01 T02191088  RH  012%=      5-min Rain = 0
KDC1 162005Z 12006KT 22/M09 A299 RMK A01 T02201089  RH  012%=      5-min Rain = 0
KDC1 162006Z 11006KT 22/M09 A299 RMK A01 T02191089  RH  012%=      5-min Rain = 0
KDC1 162007Z 11006KT 22/M09 A299 RMK A01 T02181088  RH  012%=      5-min Rain = 0
KDC1 162008Z 13005KT 22/M09 A299 RMK A01 T02181087  RH  012%=      5-min Rain = 0
KDC1 162009Z 13005KT 22/M09 A299 RMK A01 T02181088  RH  012%=      5-min Rain = 0
KDC1 162010Z 13004KT 22/M09 A299 RMK A01 T02181086  RH  012%=      5-min Rain = 0
KDC1 162011Z 08004KT 22/M09 A299 RMK A01 T02181087  RH  012%=      5-min Rain = 0
KDC1 162012Z 10005KT 22/M09 A299 RMK A01 T02191090  RH  012%=      5-min Rain = 0
KDC1 162013Z 11004KT 22/M09 A299 RMK A01 T02191089  RH  012%=      5-min Rain = 0
KDC1 162014Z 10003KT 22/M09 A299 RMK A01 T02191086  RH  012%=      5-min Rain = 0
KDC1 162015Z 13004KT 22/M09 A299 RMK A01 T02191086  RH  012%=      5-min Rain = 0
KDC1 162016Z 15004KT 22/M09 A299 RMK A01 T02171085  RH  012%=      5-min Rain = 0
KDC1 162017Z 14003KT 22/M08 A299 RMK A01 T02161084  RH  013%=      5-min Rain = 0
KDC1 162018Z 15002KT 22/M09 A299 RMK A01 T02161087  RH  012%=      5-min Rain = 0
KDC1 162019Z 20001KT 22/M09 A299 RMK A01 T02161088  RH  012%=      5-min Rain = 0
KDC1 162020Z 14001KT 22/M09 A299 RMK A01 T02161087  RH  012%=      5-min Rain = 0
KDC1 162021Z 20002KT 22/M09 A299 RMK A01 T02161087  RH  012%=      5-min Rain = 0
KDC1 162022Z 22002KT 22/M09 A299 RMK A01 T02171088  RH  012%=      5-min Rain = 0
KDC1 162023Z 21002KT 22/M09 A299 RMK A01 T02161087  RH  012%=      5-min Rain = 0
KDC1 162024Z 16002KT 22/M08 A299 RMK A01 T02171084  RH  013%=      5-min Rain = 0
KDC1 162025Z 14002KT 22/M08 A299 RMK A01 T02171081  RH  013%=      5-min Rain = 0
KDC1 162026Z 13004KT 22/M08 A299 RMK A01 T02181075  RH  013%=      5-min Rain = 0
KDC1 162027Z 11006KT 22/M07 A299 RMK A01 T02181071  RH  014%=      5-min Rain = 0
KDC1 162028Z 12005KT 22/M07 A299 RMK A01 T02181068  RH  014%=      5-min Rain = 0
KDC1 162029Z 13004KT 22/M07 A299 RMK A01 T02181068  RH  014%=      5-min Rain = 0
KDC1 162030Z 13004KT 22/M07 A299 RMK A01 T02171074  RH  014%=      5-min Rain = 0
KDC1 162031Z 12003KT 22/M07 A299 RMK A01 T02171071  RH  014%=      5-min Rain = 0
KDC1 162032Z 12004KT 22/M06 A299 RMK A01 T02161063  RH  015%=      5-min Rain = 0
KDC1 162033Z 12004KT 22/M06 A299 RMK A01 T02171061  RH  015%=      5-min Rain = 0
KDC1 162034Z 13003KT 22/M06 A299 RMK A01 T02171063  RH  015%=      5-min Rain = 0
KDC1 162035Z 14004KT 22/M07 A299 RMK A01 T02171067  RH  014%=      5-min Rain = 0
KDC1 162036Z 15004KT 22/M07 A299 RMK A01 T02171067  RH  014%=      5-min Rain = 0
KDC1 162037Z 15004KT 22/M07 A299 RMK A01 T02181074  RH  013%=      5-min Rain = 0
KDC1 162038Z 17002KT 22/M08 A299 RMK A01 T02181076  RH  013%=      5-min Rain = 0
KDC1 162039Z 16004KT 22/M07 A299 RMK A01 T02171069  RH  014%=      5-min Rain = 0
KDC1 162040Z 16005KT 22/M07 A299 RMK A01 T02181072  RH  014%=      5-min Rain = 0
KDC1 162041Z 16004KT 22/M07 A299 RMK A01 T02171074  RH  013%=      5-min Rain = 0
KDC1 162042Z 15004KT 22/M08 A299 RMK A01 T02171076  RH  013%=      5-min Rain = 0
KDC1 162043Z 15003KT 22/M08 A299 RMK A01 T02171080  RH  013%=      5-min Rain = 0
KDC1 162044Z 16003KT 22/M08 A299 RMK A01 T02161083  RH  013%=      5-min Rain = 0
KDC1 162045Z 16003KT 22/M08 A299 RMK A01 T02151081  RH  013%=      5-min Rain = 0
KDC1 162046Z 14002KT 22/M08 A299 RMK A01 T02151082  RH  013%=      5-min Rain = 0
KDC1 162047Z 14002KT 22/M08 A299 RMK A01 T02161083  RH  013%=      5-min Rain = 0
KDC1 162048Z 13002KT 22/M08 A299 RMK A01 T02161083  RH  013%=      5-min Rain = 0
KDC1 162049Z 17003KT 22/M08 A299 RMK A01 T02161075  RH  014%=      5-min Rain = 0
KDC1 162050Z 17003KT 22/M07 A299 RMK A01 T02161073  RH  014%=      5-min Rain = 0
KDC1 162051Z 17003KT 22/M08 A299 RMK A01 T02161077  RH  013%=      5-min Rain = 0
KDC1 162052Z 15003KT 22/M08 A299 RMK A01 T02161081  RH  013%=      5-min Rain = 0
KDC1 162053Z 14002KT 22/M08 A299 RMK A01 T02161080  RH  013%=      5-min Rain = 0
KDC1 162054Z 14004KT 22/M07 A299 RMK A01 T02161073  RH  014%=      5-min Rain = 0
KDC1 162055Z 15004KT 22/M07 A299 RMK A01 T02161071  RH  014%=      5-min Rain = 0
KDC1 162056Z 14003KT 22/M08 A2989 RMK A01 T02161077  RH  013%=      5-min Rain = 0
KDC1 162057Z 13004KT 22/M07 A2989 RMK A01 T02161070  RH  014%=      5-min Rain = 0
KDC1 162058Z 13005KT 22/M07 A2989 RMK A01 T02161070  RH  014%=      5-min Rain = 0
KDC1 162059Z 14005KT 22/M07 A2989 RMK A01 T02161072  RH  014%=      5-min Rain = 0
KDC1 162100Z 15005KT 22/M07 A2989 RMK A01 T02161069  RH  014%=      5-min Rain = 0
KDC1 162101Z 14004KT 22/M07 A2989 RMK A01 T02161068  RH  014%=      5-min Rain = 0
KDC1 162102Z 14004KT 22/M07 A2989 RMK A01 T02161068  RH  014%=      5-min Rain = 0
KDC1 162103Z 15004KT 22/M07 A2989 RMK A01 T02161067  RH  014%=      5-min Rain = 0
KDC1 162104Z 15003KT 22/M07 A2989 RMK A01 T02161074  RH  014%=      5-min Rain = 0
KDC1 162105Z 15003KT 22/M08 A2989 RMK A01 T02161075  RH  014%=      5-min Rain = 0
KDC1 162106Z 15003KT 22/M07 A2989 RMK A01 T02161074  RH  014%=      5-min Rain = 0
KDC1 162107Z 14002KT 22/M08 A2989 RMK A01 T02161077  RH  013%=      5-min Rain = 0
KDC1 162108Z 16002KT 22/M08 A2989 RMK A01 T02171076  RH  013%=      5-min Rain = 0
KDC1 162109Z 16003KT 22/M08 A2989 RMK A01 T02171076  RH  013%=      5-min Rain = 0
KDC1 162110Z 16003KT 22/M08 A2989 RMK A01 T02171075  RH  013%=      5-min Rain = 0
KDC1 162111Z 15003KT 22/M08 A2989 RMK A01 T02171076  RH  013%=      5-min Rain = 0
KDC1 162112Z 14003KT 22/M08 A2989 RMK A01 T02171076  RH  013%=      5-min Rain = 0
KDC1 162113Z 14002KT 22/M07 A2989 RMK A01 T02171074  RH  014%=      5-min Rain = 0
KDC1 162114Z 14004KT 22/M07 A2989 RMK A01 T02171072  RH  014%=      5-min Rain = 0
KDC1 162115Z 16003KT 22/M08 A2989 RMK A01 T02181075  RH  013%=      5-min Rain = 0
KDC1 162116Z 14002KT 22/M07 A2989 RMK A01 T02181073  RH  014%=      5-min Rain = 0
KDC1 162117Z 13003KT 22/M07 A2989 RMK A01 T02181067  RH  014%=      5-min Rain = 0
KDC1 162118Z 13004KT 22/M07 A2989 RMK A01 T02191065  RH  014%=      5-min Rain = 0
KDC1 162119Z 13003KT 22/M08 A2989 RMK A01 T02201075  RH  013%=      5-min Rain = 0
KDC1 162120Z 13003KT 22/M07 A2989 RMK A01 T02201073  RH  013%=      5-min Rain = 0
KDC1 162121Z 15005KT 22/M07 A2989 RMK A01 T02201067  RH  014%=      5-min Rain = 0
KDC1 162122Z 16004KT 22/M07 A2989 RMK A01 T02201073  RH  013%=      5-min Rain = 0
KDC1 162123Z 18003KT 22/M07 A2989 RMK A01 T02201073  RH  013%=      5-min Rain = 0
KDC1 162124Z 16002KT 22/M07 A2989 RMK A01 T02201074  RH  013%=      5-min Rain = 0
KDC1 162125Z 15002KT 22/M08 A2989 RMK A01 T02191075  RH  013%=      5-min Rain = 0
KDC1 162126Z 14003KT 22/M08 A2989 RMK A01 T02191076  RH  013%=      5-min Rain = 0
KDC1 162127Z 15002KT 22/M08 A2989 RMK A01 T02201078  RH  013%=      5-min Rain = 0
KDC1 162128Z 15003KT 22/M08 A2989 RMK A01 T02201075  RH  013%=      5-min Rain = 0
KDC1 162129Z 15002KT 22/M07 A2989 RMK A01 T02211068  RH  014%=      5-min Rain = 0
KDC1 162130Z 21001KT 22/M07 A2989 RMK A01 T02231067  RH  014%=      5-min Rain = 0
KDC1 162131Z 25003KT 23/M07 A2989 RMK A01 T02251066  RH  014%=      5-min Rain = 0
KDC1 162132Z 25005KT 23/M06 A2989 RMK A01 T02251059  RH  014%=      5-min Rain = 0
KDC1 162133Z 25005KT 23/M05 A2988 RMK A01 T02251051  RH  015%=      5-min Rain = 0
KDC1 162134Z 25006KT 23/M04 A2988 RMK A01 T02251043  RH  016%=      5-min Rain = 0
KDC1 162135Z 26005KT 23/M03 A2988 RMK A01 T02261028  RH  018%=      5-min Rain = 0
KDC1 162136Z 28005KT 23/M03 A2988 RMK A01 T02261028  RH  018%=      5-min Rain = 0
KDC1 162137Z 28005KT 23/M05 A2988 RMK A01 T02251050  RH  015%=      5-min Rain = 0
KDC1 162138Z 25004KT 22/M05 A2988 RMK A01 T02241049  RH  016%=      5-min Rain = 0
KDC1 162139Z 24005KT 23/M03 A2988 RMK A01 T02271033  RH  017%=      5-min Rain = 0
KDC1 162140Z 24005KT 23/M02 A2988 RMK A01 T02271023  RH  019%=      5-min Rain = 0
KDC1 162141Z 24005KT 23/M01 A2988 RMK A01 T02271014  RH  020%=      5-min Rain = 0
KDC1 162142Z 24004KT 23/M00 A2988 RMK A01 T02271003  RH  022%=      5-min Rain = 0
KDC1 162143Z 23005KT 23/M00 A2988 RMK A01 T02261004  RH  022%=      5-min Rain = 0
KDC1 162144Z 23007KT 23/M02 A2988 RMK A01 T02261019  RH  019%=      5-min Rain = 0
KDC1 162145Z 23006KT 23/M02 A2988 RMK A01 T02261023  RH  019%=      5-min Rain = 0
KDC1 162146Z 24009KT 23/M02 A2988 RMK A01 T02261024  RH  019%=      5-min Rain = 0
KDC1 162147Z 25007KT 22/M01 A2988 RMK A01 T02241008  RH  021%=      5-min Rain = 0
KDC1 162148Z 24007KT 22/01 A2988 RMK A01 T02230005  RH  023%=      5-min Rain = 0
KDC1 162149Z 24006KT 22/M00 A2988 RMK A01 T02221002  RH  023%=      5-min Rain = 0
KDC1 162150Z 22006G11KT 22/M03 A2988 RMK A01 T02211027  RH  019%=      5-min Rain = 0
KDC1 162151Z 23006KT 22/M04 A2988 RMK A01 T02221039  RH  017%=      5-min Rain = 0
KDC1 162152Z 23007KT 22/M04 A2988 RMK A01 T02221044  RH  016%=      5-min Rain = 0
KDC1 162153Z 23006KT 22/M06 A2988 RMK A01 T02231056  RH  015%=      5-min Rain = 0
KDC1 162154Z 24006KT 22/M06 A2988 RMK A01 T02231063  RH  014%=      5-min Rain = 0
KDC1 162155Z 26008KT 22/M05 A2988 RMK A01 T02241046  RH  016%=      5-min Rain = 0
KDC1 162156Z 25006KT 22/M04 A2988 RMK A01 T02231040  RH  017%=      5-min Rain = 0
KDC1 162157Z 25005KT 22/M04 A2988 RMK A01 T02231041  RH  017%=      5-min Rain = 0
KDC1 162158Z 26006KT 22/M04 A2988 RMK A01 T02231038  RH  017%=      5-min Rain = 0
KDC1 162159Z 25006KT 22/M04 A2988 RMK A01 T02231039  RH  017%=      5-min Rain = 0
KDC1 162200Z 25005KT 22/M04 A2988 RMK A01 T02231038  RH  017%=      5-min Rain = 0
KDC1 162201Z 25005KT 22/M04 A2988 RMK A01 T02231035  RH  018%=      5-min Rain = 0
KDC1 162202Z 26005KT 22/M05 A2987 RMK A01 T02231045  RH  016%=      5-min Rain = 0
KDC1 162203Z 25005KT 22/M05 A2987 RMK A01 T02231051  RH  016%=      5-min Rain = 0
KDC1 162204Z 23005KT 22/M05 A2987 RMK A01 T02241051  RH  015%=      5-min Rain = 0
KDC1 162205Z 22005KT 22/M03 A2987 RMK A01 T02241032  RH  018%=      5-min Rain = 0
KDC1 162206Z 23004KT 22/M03 A2987 RMK A01 T02231034  RH  018%=      5-min Rain = 0
KDC1 162207Z 23006KT 22/M03 A2987 RMK A01 T02231029  RH  018%=      5-min Rain = 0
KDC1 162208Z 25005KT 22/M02 A2987 RMK A01 T02221020  RH  020%=      5-min Rain = 0
KDC1 162209Z 25007KT 22/M00 A2987 RMK A01 T02201003  RH  023%=      5-min Rain = 0
KDC1 162210Z 26008KT 22/M02 A2987 RMK A01 T02181018  RH  020%=      5-min Rain = 0
KDC1 162211Z 26008KT 22/M03 A2987 RMK A01 T02171033  RH  018%=      5-min Rain = 0
KDC1 162212Z 27007KT 22/M05 A2988 RMK A01 T02191048  RH  016%=      5-min Rain = 0
KDC1 162213Z 25007KT 22/M05 A2988 RMK A01 T02221053  RH  015%=      5-min Rain = 0
KDC1 162214Z 26007KT 22/M05 A2988 RMK A01 T02241054  RH  015%=      5-min Rain = 0
KDC1 162215Z 25009KT 22/M04 A2988 RMK A01 T02231038  RH  017%=      5-min Rain = 0
KDC1 162216Z 24008KT 22/M01 A2988 RMK A01 T02211011  RH  021%=      5-min Rain = 0
KDC1 162217Z 25008KT 22/M00 A2988 RMK A01 T02181004  RH  023%=      5-min Rain = 0
KDC1 162218Z 25009KT 22/00 A2988 RMK A01 T021600-0  RH  024%=      5-min Rain = 0
KDC1 162219Z 25008KT 21/M01 A2988 RMK A01 T02131005  RH  023%=      5-min Rain = 0
KDC1 162220Z 25009KT 21/M02 A2988 RMK A01 T02131017  RH  021%=      5-min Rain = 0
KDC1 162221Z 25009KT 21/M02 A2988 RMK A01 T02131024  RH  020%=      5-min Rain = 0
KDC1 162222Z 25008KT 21/M03 A2988 RMK A01 T02141026  RH  020%=      5-min Rain = 0
KDC1 162223Z 25008KT 22/M03 A2988 RMK A01 T02161031  RH  019%=      5-min Rain = 0
KDC1 162224Z 25007KT 22/M04 A2988 RMK A01 T02171037  RH  018%=      5-min Rain = 0
KDC1 162225Z 25009KT 22/M04 A2988 RMK A01 T02181036  RH  018%=      5-min Rain = 0
KDC1 162226Z 25007KT 22/M03 A2988 RMK A01 T02181026  RH  019%=      5-min Rain = 0
KDC1 162227Z 24007KT 22/M02 A2988 RMK A01 T02181022  RH  020%=      5-min Rain = 0
KDC1 162228Z 23006KT 22/M03 A2988 RMK A01 T02181025  RH  020%=      5-min Rain = 0
KDC1 162229Z 24005KT 22/M02 A2988 RMK A01 T02191020  RH  020%=      5-min Rain = 0
KDC1 162230Z 24007KT 22/M01 A2988 RMK A01 T02191011  RH  021%=      5-min Rain = 0
KDC1 162231Z 25007KT 22/M02 A2988 RMK A01 T02191020  RH  020%=      5-min Rain = 0
KDC1 162232Z 25007KT 22/M02 A2988 RMK A01 T02191022  RH  020%=      5-min Rain = 0
KDC1 162233Z 26007KT 22/M03 A2988 RMK A01 T02201031  RH  018%=      5-min Rain = 0
KDC1 162234Z 25008KT 22/M03 A2988 RMK A01 T02211029  RH  019%=      5-min Rain = 0
KDC1 162235Z 26010KT 22/M03 A2988 RMK A01 T02211034  RH  018%=      5-min Rain = 0
KDC1 162236Z 26009KT 22/M04 A2988 RMK A01 T02211037  RH  017%=      5-min Rain = 0
KDC1 162237Z 26010KT 22/M04 A2988 RMK A01 T02221044  RH  017%=      5-min Rain = 0
KDC1 162238Z 27011KT 22/M05 A2988 RMK A01 T02221051  RH  016%=      5-min Rain = 0
KDC1 162239Z 26008KT 22/M07 A2988 RMK A01 T02241065  RH  014%=      5-min Rain = 0
KDC1 162240Z 24004KT 22/M07 A2987 RMK A01 T02241074  RH  013%=      5-min Rain = 0
KDC1 162241Z 24004KT 22/M08 A2987 RMK A01 T02241077  RH  013%=      5-min Rain = 0
KDC1 162242Z 25004KT 23/M07 A2987 RMK A01 T02251073  RH  013%=      5-min Rain = 0
KDC1 162243Z 26007KT 23/M07 A2987 RMK A01 T02251066  RH  014%=      5-min Rain = 0
KDC1 162244Z 26007KT 23/M07 A2987 RMK A01 T02251071  RH  013%=      5-min Rain = 0
KDC1 162245Z 26006KT 23/M08 A2987 RMK A01 T02251075  RH  013%=      5-min Rain = 0
KDC1 162246Z 28007KT 23/M05 A2987 RMK A01 T02251052  RH  015%=      5-min Rain = 0
KDC1 162247Z 27007KT 23/M03 A2987 RMK A01 T02251026  RH  019%=      5-min Rain = 0
KDC1 162248Z 28008KT 22/M02 A2987 RMK A01 T02231023  RH  019%=      5-min Rain = 0
KDC1 162249Z 26006KT 22/M01 A2987 RMK A01 T02221014  RH  021%=      5-min Rain = 0
KDC1 162250Z 26006KT 22/M03 A2987 RMK A01 T02201027  RH  019%=      5-min Rain = 0
KDC1 162251Z 26008KT 22/M05 A2987 RMK A01 T02221048  RH  016%=      5-min Rain = 0
KDC1 162252Z 27008KT 23/M06 A2987 RMK A01 T02251060  RH  014%=      5-min Rain = 0
KDC1 162253Z 26006KT 23/M07 A2987 RMK A01 T02261069  RH  013%=      5-min Rain = 0
KDC1 162254Z 26005KT 23/M08 A2987 RMK A01 T02271077  RH  012%=      5-min Rain = 0
KDC1 162255Z 26006KT 23/M07 A2987 RMK A01 T02271069  RH  013%=      5-min Rain = 0
KDC1 162256Z 28006KT 23/M05 A2987 RMK A01 T02281047  RH  016%=      5-min Rain = 0
KDC1 162257Z 27006KT 23/M04 A2987 RMK A01 T02271044  RH  016%=      5-min Rain = 0
KDC1 162258Z 26006KT 23/M03 A2986 RMK A01 T02261032  RH  018%=      5-min Rain = 0
KDC1 162259Z 25006KT 23/M06 A2986 RMK A01 T02251059  RH  014%=      5-min Rain = 0
KDC1 162300Z 25005KT 23/M07 A2986 RMK A01 T02261068  RH  013%=      5-min Rain = 0
KDC1 162301Z 24005KT 23/M05 A2986 RMK A01 T02271052  RH  015%=      5-min Rain = 0
KDC1 162302Z 21003KT 23/M03 A2986 RMK A01 T02281034  RH  017%=      5-min Rain = 0
KDC1 162303Z 23005KT 23/M02 A2986 RMK A01 T02291023  RH  018%=      5-min Rain = 0
KDC1 162304Z 24006KT 23/M02 A2986 RMK A01 T02311018  RH  019%=      5-min Rain = 0
KDC1 162305Z 25009KT 23/M02 A2986 RMK A01 T02331018  RH  019%=      5-min Rain = 0
KDC1 162306Z 25008KT 24/M05 A2986 RMK A01 T02361050  RH  015%=      5-min Rain = 0
KDC1 162307Z 26007KT 24/M05 A2986 RMK A01 T02381052  RH  014%=      5-min Rain = 0
KDC1 162308Z 26008KT 24/M06 A2986 RMK A01 T02401061  RH  013%=      5-min Rain = 0
KDC1 162309Z 26008KT 24/M07 A2986 RMK A01 T02401066  RH  013%=      5-min Rain = 0
KDC1 162310Z 25006KT 24/M06 A2986 RMK A01 T02411059  RH  013%=      5-min Rain = 0
KDC1 162311Z 25005KT 24/M06 A2986 RMK A01 T02401057  RH  013%=      5-min Rain = 0
KDC1 162312Z 24006KT 24/M06 A2986 RMK A01 T02391063  RH  013%=      5-min Rain = 0
KDC1 162313Z 23005KT 24/M06 A2986 RMK A01 T02371055  RH  014%=      5-min Rain = 0
KDC1 162314Z 23003KT 24/M05 A2986 RMK A01 T02361052  RH  014%=      5-min Rain = 0
KDC1 162315Z 22003KT 24/M05 A2986 RMK A01 T02371054  RH  014%=      5-min Rain = 0
KDC1 162316Z 23005KT 24/M05 A2986 RMK A01 T02361053  RH  014%=      5-min Rain = 0
KDC1 162317Z 23005KT 24/M06 A2986 RMK A01 T02361057  RH  014%=      5-min Rain = 0
KDC1 162318Z 23007KT 23/M05 A2986 RMK A01 T02341051  RH  015%=      5-min Rain = 0
KDC1 162319Z 21004KT 23/M05 A2986 RMK A01 T02321051  RH  015%=      5-min Rain = 0
KDC1 162320Z 24005KT 23/M05 A2986 RMK A01 T02321049  RH  015%=      5-min Rain = 0
KDC1 162321Z 25005KT 23/M06 A2986 RMK A01 T02321057  RH  014%=      5-min Rain = 0
KDC1 162322Z 25005KT 23/M07 A2986 RMK A01 T02311065  RH  013%=      5-min Rain = 0
KDC1 162323Z 26005KT 23/M06 A2986 RMK A01 T02311060  RH  014%=      5-min Rain = 0
KDC1 162324Z 26006KT 23/M06 A2986 RMK A01 T02301055  RH  015%=      5-min Rain = 0
KDC1 162325Z 26008KT 23/M04 A2986 RMK A01 T02301042  RH  016%=      5-min Rain = 0
KDC1 162326Z 26006KT 23/M03 A2986 RMK A01 T02281034  RH  017%=      5-min Rain = 0
KDC1 162327Z 27007KT 23/M03 A2986 RMK A01 T02281030  RH  018%=      5-min Rain = 0
KDC1 162328Z 27009KT 23/M03 A2987 RMK A01 T02281026  RH  018%=      5-min Rain = 0
KDC1 162329Z 27010KT 23/M03 A2987 RMK A01 T02281034  RH  017%=      5-min Rain = 0
KDC1 162330Z 27009KT 23/M04 A2987 RMK A01 T02271041  RH  016%=      5-min Rain = 0
KDC1 162331Z 27007KT 23/M04 A2987 RMK A01 T02251041  RH  017%=      5-min Rain = 0
KDC1 162332Z 28010KT 22/M03 A2987 RMK A01 T02241032  RH  018%=      5-min Rain = 0
KDC1 162333Z 27011KT 22/M03 A2987 RMK A01 T02231028  RH  019%=      5-min Rain = 0
KDC1 162334Z 27010KT 22/M03 A2987 RMK A01 T02211031  RH  018%=      5-min Rain = 0
KDC1 162335Z 28009KT 22/M02 A2987 RMK A01 T02191019  RH  020%=      5-min Rain = 0
KDC1 162336Z 27010KT 22/M02 A2987 RMK A01 T02161015  RH  021%=      5-min Rain = 0
KDC1 162337Z 28009KT 22/M03 A2987 RMK A01 T02151029  RH  019%=      5-min Rain = 0
KDC1 162338Z 29007KT 22/M02 A2987 RMK A01 T02161020  RH  020%=      5-min Rain = 0
KDC1 162339Z 29006KT 22/M01 A2987 RMK A01 T02161010  RH  022%=      5-min Rain = 0
KDC1 162340Z 29007KT 22/M01 A2987 RMK A01 T02181011  RH  022%=      5-min Rain = 0
KDC1 162341Z 30006KT 22/M01 A2987 RMK A01 T02201011  RH  021%=      5-min Rain = 0
KDC1 162342Z 30006KT 22/M01 A2987 RMK A01 T02211007  RH  022%=      5-min Rain = 0
KDC1 162343Z 30005KT 22/01 A2987 RMK A01 T02210006  RH  024%=      5-min Rain = 0
KDC1 162344Z 30005KT 22/M00 A2987 RMK A01 T02211001  RH  023%=      5-min Rain = 0
KDC1 162345Z 29005KT 22/M01 A2987 RMK A01 T02201006  RH  022%=      5-min Rain = 0
KDC1 162346Z 28004KT 22/M01 A2987 RMK A01 T02201006  RH  022%=      5-min Rain = 0
KDC1 162347Z 29004KT 22/M01 A2987 RMK A01 T02201011  RH  021%=      5-min Rain = 0
KDC1 162348Z 29005KT 22/M01 A2987 RMK A01 T02191009  RH  022%=      5-min Rain = 0
KDC1 162349Z 29005KT 22/M01 A2987 RMK A01 T02191005  RH  022%=      5-min Rain = 0
KDC1 162350Z 29005KT 22/00 A2987 RMK A01 T02190001  RH  023%=      5-min Rain = 0
KDC1 162351Z 30005KT 22/M00 A2987 RMK A01 T02191002  RH  023%=      5-min Rain = 0
KDC1 162352Z 30006KT 22/00 A2987 RMK A01 T02180004  RH  024%=      5-min Rain = 0
KDC1 162353Z 30005KT 22/01 A2987 RMK A01 T02160008  RH  025%=      5-min Rain = 0
KDC1 162354Z 30005KT 21/02 A2987 RMK A01 T02140016  RH  027%=      5-min Rain = 0
KDC1 162355Z 31006KT 21/02 A2987 RMK A01 T02120017  RH  028%=      5-min Rain = 0
KDC1 162356Z 31005KT 21/01 A2987 RMK A01 T02100009  RH  026%=      5-min Rain = 0
KDC1 162357Z 29006KT 21/01 A2987 RMK A01 T02100010  RH  026%=      5-min Rain = 0
KDC1 162358Z 29008KT 21/M00 A2987 RMK A01 T02091001  RH  025%=      5-min Rain = 0
KDC1 162359Z 29008KT 21/M01 A2987 RMK A01 T02081008  RH  023%=      5-min Rain = 0
KDC1 170000Z 29009KT 21/M02 A2987 RMK A01 T02091015  RH  022%=      5-min Rain = 0
KDC1 170001Z 30008KT 21/M01 A2987 RMK A01 T02101014  RH  022%=      5-min Rain = 0
KDC1 170002Z 31006KT 21/M02 A2987 RMK A01 T02111017  RH  022%=      5-min Rain = 0
KDC1 170003Z 30006KT 21/M01 A2987 RMK A01 T02101012  RH  022%=      5-min Rain = 0
KDC1 170004Z 30007KT 21/M01 A2987 RMK A01 T02091010  RH  023%=      5-min Rain = 0
KDC1 170005Z 29007KT 21/M00 A2987 RMK A01 T02081002  RH  025%=      5-min Rain = 0
KDC1 170006Z 29007KT 21/00 A2987 RMK A01 T02070002  RH  025%=      5-min Rain = 0
KDC1 170007Z 29007KT 21/00 A2987 RMK A01 T02060004  RH  026%=      5-min Rain = 0
KDC1 170008Z 29007KT 21/00 A2987 RMK A01 T020500-0  RH  025%=      5-min Rain = 0
KDC1 170009Z 29007KT 20/M00 A2987 RMK A01 T02041003  RH  025%=      5-min Rain = 0
KDC1 170010Z 29007KT 20/00 A2987 RMK A01 T02040003  RH  026%=      5-min Rain = 0
KDC1 170011Z 29007KT 20/01 A2987 RMK A01 T02030005  RH  027%=      5-min Rain = 0
KDC1 170012Z 29007KT 20/01 A2987 RMK A01 T02020005  RH  027%=      5-min Rain = 0
KDC1 170013Z 30007KT 20/01 A2987 RMK A01 T02010008  RH  027%=      5-min Rain = 0
KDC1 170014Z 30008KT 20/01 A2987 RMK A01 T02000012  RH  028%=      5-min Rain = 0
KDC1 170015Z 31007KT 20/01 A2987 RMK A01 T01990014  RH  029%=      5-min Rain = 0
KDC1 170016Z 31007KT 20/01 A2987 RMK A01 T01980008  RH  028%=      5-min Rain = 0
KDC1 170017Z 31007KT 20/01 A2987 RMK A01 T01970008  RH  028%=      5-min Rain = 0
KDC1 170018Z 31007KT 20/01 A2987 RMK A01 T01970008  RH  028%=      5-min Rain = 0
KDC1 170019Z 30007KT 20/00 A2987 RMK A01 T01970004  RH  027%=      5-min Rain = 0
KDC1 170020Z 30006KT 20/00 A2987 RMK A01 T01970001  RH  027%=      5-min Rain = 0
KDC1 170021Z 29006KT 20/M00 A2987 RMK A01 T01981001  RH  026%=      5-min Rain = 0
KDC1 170022Z 29007KT 20/01 A2987 RMK A01 T01990008  RH  028%=      5-min Rain = 0
KDC1 170023Z 29007KT 20/01 A2987 RMK A01 T01980005  RH  027%=      5-min Rain = 0
KDC1 170024Z 29007KT 20/M00 A2987 RMK A01 T01981002  RH  026%=      5-min Rain = 0
KDC1 170025Z 28008KT 20/M01 A2987 RMK A01 T01981005  RH  025%=      5-min Rain = 0
KDC1 170026Z 28007KT 20/00 A2987 RMK A01 T019900-0  RH  026%=      5-min Rain = 0
KDC1 170027Z 28007KT 20/01 A2987 RMK A01 T01990009  RH  028%=      5-min Rain = 0
KDC1 170028Z 29007KT 20/01 A2987 RMK A01 T01970011  RH  029%=      5-min Rain = 0
KDC1 170029Z 29007KT 20/00 A2987 RMK A01 T01960002  RH  027%=      5-min Rain = 0
KDC1 170030Z 29006KT 20/M00 A2987 RMK A01 T01971001  RH  027%=      5-min Rain = 0
KDC1 170031Z 30005KT 20/01 A2987 RMK A01 T01970006  RH  028%=      5-min Rain = 0
KDC1 170032Z 29005KT 20/01 A2987 RMK A01 T01970012  RH  029%=      5-min Rain = 0
KDC1 170033Z 30005KT 20/02 A2987 RMK A01 T01960015  RH  030%=      5-min Rain = 0
KDC1 170034Z 30005KT 20/01 A2987 RMK A01 T01950013  RH  030%=      5-min Rain = 0
KDC1 170035Z 30005KT 19/01 A2987 RMK A01 T01940013  RH  030%=      5-min Rain = 0
KDC1 170036Z 30005KT 19/02 A2987 RMK A01 T01940019  RH  031%=      5-min Rain = 0
KDC1 170037Z 30004KT 19/03 A2987 RMK A01 T01930025  RH  033%=      5-min Rain = 0
KDC1 170038Z 30004KT 19/03 A2987 RMK A01 T01920030  RH  034%=      5-min Rain = 0
KDC1 170039Z 31004KT 19/03 A2987 RMK A01 T01910029  RH  034%=      5-min Rain = 0
KDC1 170040Z 31005KT 19/02 A2988 RMK A01 T01900023  RH  033%=      5-min Rain = 0
KDC1 170041Z 30007KT 19/01 A2988 RMK A01 T01900010  RH  030%=      5-min Rain = 0
KDC1 170042Z 29005KT 19/02 A2988 RMK A01 T01910015  RH  031%=      5-min Rain = 0
KDC1 170043Z 30006KT 19/02 A2988 RMK A01 T01910018  RH  031%=      5-min Rain = 0
KDC1 170044Z 29006KT 19/02 A2988 RMK A01 T01910022  RH  032%=      5-min Rain = 0
KDC1 170045Z 29006KT 19/02 A2988 RMK A01 T01900021  RH  032%=      5-min Rain = 0
KDC1 170046Z 29006KT 19/02 A2988 RMK A01 T01900015  RH  031%=      5-min Rain = 0
KDC1 170047Z 29005KT 19/01 A2988 RMK A01 T01900013  RH  031%=      5-min Rain = 0
KDC1 170048Z 29005KT 19/02 A2988 RMK A01 T01900015  RH  031%=      5-min Rain = 0
KDC1 170049Z 29005KT 19/02 A2988 RMK A01 T01890016  RH  032%=      5-min Rain = 0
KDC1 170050Z 29005KT 19/02 A2988 RMK A01 T01880017  RH  032%=      5-min Rain = 0
KDC1 170051Z 30005KT 19/02 A2988 RMK A01 T01880015  RH  032%=      5-min Rain = 0
KDC1 170052Z 30006KT 19/02 A2988 RMK A01 T01870016  RH  032%=      5-min Rain = 0
KDC1 170053Z 30006KT 19/01 A2988 RMK A01 T01870010  RH  031%=      5-min Rain = 0
KDC1 170054Z 30006KT 19/01 A2988 RMK A01 T01870010  RH  030%=      5-min Rain = 0
KDC1 170055Z 29006KT 19/01 A2988 RMK A01 T01870014  RH  031%=      5-min Rain = 0
KDC1 170056Z 30006KT 19/02 A2988 RMK A01 T01870015  RH  032%=      5-min Rain = 0
KDC1 170057Z 31006KT 19/02 A2989 RMK A01 T01880017  RH  032%=      5-min Rain = 0
KDC1 170058Z 31006KT 19/01 A2989 RMK A01 T01870010  RH  030%=      5-min Rain = 0
KDC1 170059Z 30005KT 19/01 A2989 RMK A01 T01880012  RH  031%=      5-min Rain = 0
KDC1 170100Z 31005KT 19/01 A2989 RMK A01 T01880007  RH  030%=      5-min Rain = 0
KDC1 170101Z 31005KT 19/M00 A2988 RMK A01 T01891001  RH  028%=      5-min Rain = 0
KDC1 170102Z 32005KT 19/M00 A2988 RMK A01 T01901002  RH  027%=      5-min Rain = 0
KDC1 170103Z 32004KT 19/M00 A2989 RMK A01 T01911001  RH  027%=      5-min Rain = 0
KDC1 170104Z 31003KT 19/02 A2989 RMK A01 T01920021  RH  032%=      5-min Rain = 0
KDC1 170105Z 31004KT 19/03 A2989 RMK A01 T01890032  RH  035%=      5-min Rain = 0
KDC1 170106Z 31004KT 19/04 A2989 RMK A01 T01870037  RH  037%=      5-min Rain = 0
KDC1 170107Z 32004KT 19/03 A2989 RMK A01 T01850031  RH  036%=      5-min Rain = 0
KDC1 170108Z 32004KT 18/02 A2989 RMK A01 T01840021  RH  034%=      5-min Rain = 0
KDC1 170109Z 33004KT 18/02 A2989 RMK A01 T01840018  RH  033%=      5-min Rain = 0
KDC1 170110Z 33004KT 19/01 A2989 RMK A01 T01850012  RH  031%=      5-min Rain = 0
KDC1 170111Z 33004KT 19/01 A2989 RMK A01 T01870007  RH  030%=      5-min Rain = 0
KDC1 170112Z 33004KT 19/01 A2989 RMK A01 T01880008  RH  030%=      5-min Rain = 0
KDC1 170113Z 33004KT 19/01 A2989 RMK A01 T01890008  RH  030%=      5-min Rain = 0
KDC1 170114Z 34005KT 19/02 A2989 RMK A01 T01890016  RH  032%=      5-min Rain = 0
KDC1 170115Z 33005KT 19/02 A2989 RMK A01 T01890016  RH  031%=      5-min Rain = 0
KDC1 170116Z 33005KT 19/01 A2989 RMK A01 T01890010  RH  030%=      5-min Rain = 0
KDC1 170117Z 33004KT 19/01 A2989 RMK A01 T01900007  RH  029%=      5-min Rain = 0
KDC1 170118Z 32005KT 19/02 A2989 RMK A01 T01900018  RH  032%=      5-min Rain = 0
KDC1 170119Z 32005KT 19/03 A2989 RMK A01 T01890031  RH  035%=      5-min Rain = 0
KDC1 170120Z 32005KT 19/03 A2989 RMK A01 T01870030  RH  035%=      5-min Rain = 0
KDC1 170121Z 32005KT 19/02 A299 RMK A01 T01860019  RH  033%=      5-min Rain = 0
KDC1 170122Z 32005KT 19/02 A299 RMK A01 T01860017  RH  032%=      5-min Rain = 0
KDC1 170123Z 32005KT 19/02 A299 RMK A01 T01860017  RH  032%=      5-min Rain = 0
KDC1 170124Z 32004KT 19/02 A299 RMK A01 T01860017  RH  032%=      5-min Rain = 0
KDC1 170125Z 31005KT 19/02 A299 RMK A01 T01860016  RH  032%=      5-min Rain = 0
KDC1 170126Z 32005KT 19/01 A299 RMK A01 T01850010  RH  031%=      5-min Rain = 0
KDC1 170127Z 32005KT 19/02 A299 RMK A01 T01850016  RH  032%=      5-min Rain = 0
KDC1 170128Z 32004KT 19/03 A299 RMK A01 T01850025  RH  035%=      5-min Rain = 0
KDC1 170129Z 32004KT 18/03 A299 RMK A01 T01830031  RH  036%=      5-min Rain = 0
KDC1 170130Z 32004KT 18/03 A299 RMK A01 T01820026  RH  035%=      5-min Rain = 0
KDC1 170131Z 32004KT 18/03 A299 RMK A01 T01810027  RH  036%=      5-min Rain = 0
KDC1 170132Z 31004KT 18/03 A299 RMK A01 T01810030  RH  037%=      5-min Rain = 0
KDC1 170133Z 31004KT 18/03 A299 RMK A01 T01800028  RH  036%=      5-min Rain = 0
KDC1 170134Z 32004KT 18/02 A299 RMK A01 T01800023  RH  035%=      5-min Rain = 0
KDC1 170135Z 32004KT 18/02 A299 RMK A01 T01800017  RH  033%=      5-min Rain = 0
KDC1 170136Z 32004KT 18/02 A299 RMK A01 T01800016  RH  033%=      5-min Rain = 0
KDC1 170137Z 32004KT 18/02 A299 RMK A01 T01810015  RH  033%=      5-min Rain = 0
KDC1 170138Z 32004KT 18/02 A299 RMK A01 T01820018  RH  033%=      5-min Rain = 0
KDC1 170139Z 32004KT 18/03 A299 RMK A01 T01820025  RH  035%=      5-min Rain = 0
KDC1 170140Z 31005KT 18/02 A299 RMK A01 T01810022  RH  034%=      5-min Rain = 0
KDC1 170141Z 32005KT 18/02 A299 RMK A01 T01800016  RH  033%=      5-min Rain = 0
KDC1 170142Z 32005KT 18/03 A299 RMK A01 T01800025  RH  035%=      5-min Rain = 0
KDC1 170143Z 32005KT 18/04 A299 RMK A01 T01800038  RH  039%=      5-min Rain = 0
KDC1 170144Z 32005KT 18/04 A299 RMK A01 T01780042  RH  041%=      5-min Rain = 0
KDC1 170145Z 32005KT 18/04 A299 RMK A01 T01760044  RH  041%=      5-min Rain = 0
KDC1 170146Z 32005KT 18/04 A299 RMK A01 T01750040  RH  041%=      5-min Rain = 0
KDC1 170147Z 32005KT 17/04 A299 RMK A01 T01740035  RH  039%=      5-min Rain = 0
KDC1 170148Z 33005KT 17/02 A299 RMK A01 T01740023  RH  036%=      5-min Rain = 0
KDC1 170149Z 33005KT 18/02 A299 RMK A01 T01750015  RH  034%=      5-min Rain = 0
KDC1 170150Z 32005KT 18/00 A2991 RMK A01 T01770004  RH  031%=      5-min Rain = 0
KDC1 170151Z 32005KT 18/M00 A2991 RMK A01 T01791002  RH  029%=      5-min Rain = 0
KDC1 170152Z 32005KT 18/M00 A2991 RMK A01 T01811002  RH  029%=      5-min Rain = 0
KDC1 170153Z 32005KT 18/M00 A2991 RMK A01 T01821003  RH  029%=      5-min Rain = 0
KDC1 170154Z 32004KT 18/M00 A2991 RMK A01 T01821002  RH  029%=      5-min Rain = 0
KDC1 170155Z 32004KT 18/01 A2991 RMK A01 T01830005  RH  030%=      5-min Rain = 0
KDC1 170156Z 33004KT 18/01 A2991 RMK A01 T01830006  RH  030%=      5-min Rain = 0
KDC1 170157Z 33004KT 18/01 A299 RMK A01 T01820008  RH  031%=      5-min Rain = 0
KDC1 170158Z 33004KT 18/01 A299 RMK A01 T01810009  RH  031%=      5-min Rain = 0
KDC1 170159Z 33004KT 18/01 A299 RMK A01 T01810010  RH  032%=      5-min Rain = 0
KDC1 170200Z 32004KT 18/01 A299 RMK A01 T01810010  RH  032%=      5-min Rain = 0
KDC1 170201Z 32004KT 18/01 A2991 RMK A01 T01810011  RH  032%=      5-min Rain = 0
KDC1 170202Z 32004KT 18/01 A2991 RMK A01 T01810010  RH  032%=      5-min Rain = 0
KDC1 170203Z 32004KT 18/01 A2991 RMK A01 T01810011  RH  032%=      5-min Rain = 0
KDC1 170204Z 32005KT 18/01 A2991 RMK A01 T01800006  RH  031%=      5-min Rain = 0
KDC1 170205Z 32005KT 18/00 A2991 RMK A01 T018100-0  RH  029%=      5-min Rain = 0
KDC1 170206Z 31005KT 18/M01 A2991 RMK A01 T01821008  RH  028%=      5-min Rain = 0
KDC1 170207Z 31006KT 18/M00 A2991 RMK A01 T01831001  RH  029%=      5-min Rain = 0
KDC1 170208Z 31006KT 18/00 A2991 RMK A01 T01830002  RH  030%=      5-min Rain = 0
KDC1 170209Z 31006KT 18/M00 A2991 RMK A01 T01821003  RH  029%=      5-min Rain = 0
KDC1 170210Z 31006KT 18/M01 A2991 RMK A01 T01821006  RH  028%=      5-min Rain = 0
KDC1 170211Z 31006KT 18/M01 A2991 RMK A01 T01821007  RH  028%=      5-min Rain = 0
KDC1 170212Z 31005KT 18/00 A2991 RMK A01 T018100-0  RH  029%=      5-min Rain = 0
KDC1 170213Z 32006KT 18/02 A2991 RMK A01 T01790016  RH  033%=      5-min Rain = 0
KDC1 170214Z 31006KT 18/03 A2991 RMK A01 T01750026  RH  037%=      5-min Rain = 0
KDC1 170215Z 32005KT 17/03 A2991 RMK A01 T01730027  RH  037%=      5-min Rain = 0
KDC1 170216Z 32005KT 17/02 A2991 RMK A01 T01720022  RH  036%=      5-min Rain = 0
KDC1 170217Z 32005KT 17/02 A2991 RMK A01 T01720016  RH  035%=      5-min Rain = 0
KDC1 170218Z 31005KT 17/02 A2991 RMK A01 T01720017  RH  035%=      5-min Rain = 0
KDC1 170219Z 31005KT 17/02 A2991 RMK A01 T01720017  RH  035%=      5-min Rain = 0
KDC1 170220Z 31005KT 17/01 A2992 RMK A01 T01720013  RH  034%=      5-min Rain = 0
KDC1 170221Z 31005KT 17/00 A2992 RMK A01 T01720004  RH  032%=      5-min Rain = 0
KDC1 170222Z 32005KT 17/M01 A2991 RMK A01 T01731007  RH  029%=      5-min Rain = 0
KDC1 170223Z 32005KT 18/M01 A2991 RMK A01 T01751007  RH  029%=      5-min Rain = 0
KDC1 170224Z 32005KT 18/M00 A2992 RMK A01 T01761003  RH  030%=      5-min Rain = 0
KDC1 170225Z 32005KT 18/M00 A2992 RMK A01 T01761003  RH  030%=      5-min Rain = 0
KDC1 170226Z 32005KT 18/M00 A2992 RMK A01 T01761002  RH  030%=      5-min Rain = 0
KDC1 170227Z 32005KT 18/01 A2992 RMK A01 T01750007  RH  032%=      5-min Rain = 0
KDC1 170228Z 32005KT 17/01 A2992 RMK A01 T01740011  RH  033%=      5-min Rain = 0
KDC1 170229Z 32005KT 17/02 A2992 RMK A01 T01730021  RH  036%=      5-min Rain = 0
KDC1 170230Z 32005KT 17/04 A2992 RMK A01 T01710038  RH  041%=      5-min Rain = 0
KDC1 170231Z 32005KT 17/04 A2992 RMK A01 T01690039  RH  042%=      5-min Rain = 0
KDC1 170232Z 33004KT 17/04 A2993 RMK A01 T01670041  RH  043%=      5-min Rain = 0
KDC1 170233Z 02003KT 17/04 A2993 RMK A01 T01670040  RH  043%=      5-min Rain = 0
KDC1 170234Z 03004KT 17/02 A2993 RMK A01 T01660019  RH  037%=      5-min Rain = 0
KDC1 170235Z 03004KT 17/00 A2993 RMK A01 T01660003  RH  033%=      5-min Rain = 0
KDC1 170236Z 01004KT 17/M01 A2993 RMK A01 T01681014  RH  029%=      5-min Rain = 0
KDC1 170237Z 03002KT 17/M02 A2993 RMK A01 T01721020  RH  027%=      5-min Rain = 0
KDC1 170238Z 05003KT 17/M01 A2993 RMK A01 T01731009  RH  029%=      5-min Rain = 0
KDC1 170239Z 05002KT 17/M01 A2993 RMK A01 T01731008  RH  029%=      5-min Rain = 0
KDC1 170240Z 04001KT 17/M01 A2993 RMK A01 T01731007  RH  029%=      5-min Rain = 0
KDC1 170241Z 05002KT 17/M01 A2993 RMK A01 T01731005  RH  030%=      5-min Rain = 0
KDC1 170242Z 04001KT 17/M00 A2993 RMK A01 T01721004  RH  030%=      5-min Rain = 0
KDC1 170243Z 05000KT 17/M00 A2993 RMK A01 T01721004  RH  030%=      5-min Rain = 0
KDC1 170244Z 09001KT 17/M01 A2993 RMK A01 T01721005  RH  030%=      5-min Rain = 0
KDC1 170245Z 09000KT 17/M01 A2993 RMK A01 T01721009  RH  029%=      5-min Rain = 0
KDC1 170246Z 08001KT 17/M01 A2993 RMK A01 T01731014  RH  028%=      5-min Rain = 0
KDC1 170247Z 01001KT 17/M01 A2993 RMK A01 T01731013  RH  028%=      5-min Rain = 0
KDC1 170248Z 01001KT 17/M01 A2993 RMK A01 T01741012  RH  028%=      5-min Rain = 0
KDC1 170249Z 01000KT 17/M01 A2993 RMK A01 T01741010  RH  029%=      5-min Rain = 0
KDC1 170250Z 04001KT 17/M01 A2993 RMK A01 T01741010  RH  029%=      5-min Rain = 0
KDC1 170251Z 04001KT 17/M01 A2993 RMK A01 T01741012  RH  028%=      5-min Rain = 0
KDC1 170252Z 03000KT 17/M01 A2993 RMK A01 T01741010  RH  028%=      5-min Rain = 0
KDC1 170253Z 03000KT 17/M01 A2993 RMK A01 T01741007  RH  029%=      5-min Rain = 0
KDC1 170254Z 03000KT 17/M01 A2993 RMK A01 T01741011  RH  028%=      5-min Rain = 0
KDC1 170255Z 03000KT 17/M01 A2994 RMK A01 T01741014  RH  028%=      5-min Rain = 0
KDC1 170256Z 00000KT 17/00 A2994 RMK A01 T01740002  RH  031%=      5-min Rain = 0
KDC1 170257Z 00000KT 17/01 A2994 RMK A01 T01720006  RH  032%=      5-min Rain = 0
KDC1 170258Z 00000KT 17/01 A2994 RMK A01 T01700006  RH  033%=      5-min Rain = 0
KDC1 170259Z 00000KT 17/01 A2994 RMK A01 T01690005  RH  033%=      5-min Rain = 0
KDC1 170300Z 29001KT 17/01 A2994 RMK A01 T01690006  RH  033%=      5-min Rain = 0
KDC1 170301Z 29002KT 17/01 A2994 RMK A01 T01680009  RH  034%=      5-min Rain = 0
KDC1 170302Z 29001KT 17/01 A2994 RMK A01 T01670009  RH  034%=      5-min Rain = 0
KDC1 170303Z 29000KT 17/00 A2994 RMK A01 T01660001  RH  033%=      5-min Rain = 0
KDC1 170304Z 29002KT 17/00 A2994 RMK A01 T01660003  RH  033%=      5-min Rain = 0
KDC1 170305Z 28003KT 17/00 A2994 RMK A01 T01660003  RH  033%=      5-min Rain = 0
KDC1 170306Z 29003KT 17/01 A2994 RMK A01 T01660005  RH  034%=      5-min Rain = 0
KDC1 170307Z 30003KT 17/M00 A2994 RMK A01 T01661003  RH  032%=      5-min Rain = 0
KDC1 170308Z 30003KT 17/00 A2994 RMK A01 T01670002  RH  033%=      5-min Rain = 0
KDC1 170309Z 28003KT 17/01 A2994 RMK A01 T01660011  RH  035%=      5-min Rain = 0
KDC1 170310Z 27004KT 16/01 A2994 RMK A01 T01640013  RH  036%=      5-min Rain = 0
KDC1 170311Z 27004KT 16/01 A2994 RMK A01 T01620013  RH  036%=      5-min Rain = 0
KDC1 170312Z 28003KT 16/01 A2994 RMK A01 T01610012  RH  036%=      5-min Rain = 0
KDC1 170313Z 28002KT 16/01 A2994 RMK A01 T01610008  RH  036%=      5-min Rain = 0
KDC1 170314Z 28002KT 16/M00 A2994 RMK A01 T01601002  RH  033%=      5-min Rain = 0
KDC1 170315Z 29002KT 16/M01 A2994 RMK A01 T01621010  RH  031%=      5-min Rain = 0
KDC1 170316Z 29002KT 16/M01 A2994 RMK A01 T01641005  RH  032%=      5-min Rain = 0
KDC1 170317Z 28002KT 16/M01 A2994 RMK A01 T01641006  RH  031%=      5-min Rain = 0
KDC1 170318Z 28002KT 17/M02 A2994 RMK A01 T01661019  RH  028%=      5-min Rain = 0
KDC1 170319Z 27001KT 17/M04 A2994 RMK A01 T01681037  RH  024%=      5-min Rain = 0
KDC1 170320Z 26001KT 17/M04 A2994 RMK A01 T01711040  RH  023%=      5-min Rain = 0
KDC1 170321Z 26001KT 17/M05 A2995 RMK A01 T01731045  RH  022%=      5-min Rain = 0
KDC1 170322Z 26002KT 17/M05 A2995 RMK A01 T01741048  RH  022%=      5-min Rain = 0
KDC1 170323Z 25001KT 18/M04 A2995 RMK A01 T01751043  RH  022%=      5-min Rain = 0
KDC1 170324Z 24002KT 17/00 A2995 RMK A01 T01740002  RH  031%=      5-min Rain = 0
KDC1 170325Z 20002KT 17/01 A2995 RMK A01 T01700008  RH  033%=      5-min Rain = 0
KDC1 170326Z 22002KT 17/M00 A2995 RMK A01 T01661002  RH  032%=      5-min Rain = 0
KDC1 170327Z 22002KT 17/01 A2995 RMK A01 T01660005  RH  034%=      5-min Rain = 0
KDC1 170328Z 22003KT 17/01 A2995 RMK A01 T01660006  RH  034%=      5-min Rain = 0
KDC1 170329Z 23002KT 17/00 A2995 RMK A01 T01670003  RH  033%=      5-min Rain = 0
KDC1 170330Z 25002KT 17/00 A2995 RMK A01 T01670002  RH  033%=      5-min Rain = 0
KDC1 170331Z 25001KT 17/00 A2995 RMK A01 T01670003  RH  033%=      5-min Rain = 0
KDC1 170332Z 13000KT 17/00 A2995 RMK A01 T016500-0  RH  032%=      5-min Rain = 0
KDC1 170333Z 08000KT 17/M01 A2995 RMK A01 T01651005  RH  031%=      5-min Rain = 0
KDC1 170334Z 20001KT 17/M01 A2995 RMK A01 T01651008  RH  031%=      5-min Rain = 0
KDC1 170335Z 21003KT 17/M01 A2995 RMK A01 T01651008  RH  031%=      5-min Rain = 0
KDC1 170336Z 22003KT 17/M01 A2995 RMK A01 T01651011  RH  030%=      5-min Rain = 0
KDC1 170337Z 24002KT 17/M01 A2995 RMK A01 T01661010  RH  030%=      5-min Rain = 0
KDC1 170338Z 23003KT 17/M01 A2995 RMK A01 T01661014  RH  029%=      5-min Rain = 0
KDC1 170339Z 21005KT 17/M02 A2995 RMK A01 T01661019  RH  028%=      5-min Rain = 0
KDC1 170340Z 21004KT 17/M02 A2995 RMK A01 T01671021  RH  028%=      5-min Rain = 0
KDC1 170341Z 21005KT 17/M03 A2995 RMK A01 T01681026  RH  026%=      5-min Rain = 0
KDC1 170342Z 21004KT 17/M03 A2995 RMK A01 T01691032  RH  025%=      5-min Rain = 0
KDC1 170343Z 23004KT 17/M03 A2995 RMK A01 T01701032  RH  025%=      5-min Rain = 0
KDC1 170344Z 23005KT 17/M03 A2995 RMK A01 T01711030  RH  025%=      5-min Rain = 0
KDC1 170345Z 21005KT 17/M03 A2995 RMK A01 T01721032  RH  025%=      5-min Rain = 0
KDC1 170346Z 20005KT 17/M03 A2995 RMK A01 T01731028  RH  025%=      5-min Rain = 0
KDC1 170347Z 21003KT 17/M03 A2995 RMK A01 T01731030  RH  025%=      5-min Rain = 0
KDC1 170348Z 21005KT 17/M03 A2995 RMK A01 T01731026  RH  026%=      5-min Rain = 0
KDC1 170349Z 20004KT 17/M03 A2995 RMK A01 T01721026  RH  026%=      5-min Rain = 0
KDC1 170350Z 20005KT 17/M04 A2995 RMK A01 T01721043  RH  023%=      5-min Rain = 0
KDC1 170351Z 21003KT 18/M05 A2995 RMK A01 T01751049  RH  021%=      5-min Rain = 0
KDC1 170352Z 23002KT 18/M05 A2995 RMK A01 T01771049  RH  021%=      5-min Rain = 0
KDC1 170353Z 22003KT 18/M04 A2995 RMK A01 T01771041  RH  022%=      5-min Rain = 0
KDC1 170354Z 22006KT 18/M03 A2996 RMK A01 T01771028  RH  025%=      5-min Rain = 0
KDC1 170355Z 19007KT 18/M04 A2996 RMK A01 T01761036  RH  023%=      5-min Rain = 0
KDC1 170356Z 20005KT 18/M04 A2996 RMK A01 T01791039  RH  022%=      5-min Rain = 0
KDC1 170357Z 24005KT 18/M03 A2996 RMK A01 T01801033  RH  023%=      5-min Rain = 0
KDC1 170358Z 24005KT 18/M03 A2997 RMK A01 T01801027  RH  024%=      5-min Rain = 0
KDC1 170359Z 28007KT 18/M04 A2997 RMK A01 T01791042  RH  022%=      5-min Rain = 0
KDC1 170400Z 27006KT 18/M07 A2997 RMK A01 T01831070  RH  017%=      5-min Rain = 0
KDC1 170401Z 27003KT 19/M07 A2997 RMK A01 T01871074  RH  016%=      5-min Rain = 0
KDC1 170402Z 23006KT 19/M06 A2997 RMK A01 T01891062  RH  018%=      5-min Rain = 0
KDC1 170403Z 22003KT 19/M04 A2997 RMK A01 T01901044  RH  020%=      5-min Rain = 0
KDC1 170404Z 20004KT 19/M04 A2997 RMK A01 T01891042  RH  021%=      5-min Rain = 0
KDC1 170405Z 20005KT 19/M04 A2997 RMK A01 T01881035  RH  022%=      5-min Rain = 0
KDC1 170406Z 20004KT 19/M03 A2997 RMK A01 T01861032  RH  023%=      5-min Rain = 0
KDC1 170407Z 19004KT 19/M02 A2997 RMK A01 T01851017  RH  025%=      5-min Rain = 0
KDC1 170408Z 17005KT 18/M01 A2997 RMK A01 T01841013  RH  026%=      5-min Rain = 0
KDC1 170409Z 18004KT 18/M00 A2997 RMK A01 T01831003  RH  029%=      5-min Rain = 0
KDC1 170410Z 19004KT 18/M01 A2997 RMK A01 T01821006  RH  028%=      5-min Rain = 0
KDC1 170411Z 19005KT 18/M01 A2997 RMK A01 T01811006  RH  028%=      5-min Rain = 0
KDC1 170412Z 18004KT 18/M02 A2997 RMK A01 T01801015  RH  027%=      5-min Rain = 0
KDC1 170413Z 17005KT 18/M01 A2997 RMK A01 T01781011  RH  028%=      5-min Rain = 0
KDC1 170414Z 15007KT 18/00 A2997 RMK A01 T017600-0  RH  030%=      5-min Rain = 0
KDC1 170415Z 14008KT 17/01 A2998 RMK A01 T01740008  RH  033%=      5-min Rain = 0
KDC1 170416Z 14009KT 17/01 A2998 RMK A01 T01730011  RH  034%=      5-min Rain = 0
KDC1 170417Z 15008KT 17/01 A2998 RMK A01 T01720012  RH  034%=      5-min Rain = 0
KDC1 170418Z 16007KT 17/01 A2997 RMK A01 T01710010  RH  034%=      5-min Rain = 0
KDC1 170419Z 16006KT 17/01 A2997 RMK A01 T01710008  RH  033%=      5-min Rain = 0
KDC1 170420Z 16007KT 17/01 A2997 RMK A01 T01710007  RH  033%=      5-min Rain = 0
KDC1 170421Z 18005KT 17/01 A2998 RMK A01 T01710008  RH  033%=      5-min Rain = 0
KDC1 170422Z 17006KT 17/01 A2998 RMK A01 T01710010  RH  034%=      5-min Rain = 0
KDC1 170423Z 17006KT 17/02 A2998 RMK A01 T01720023  RH  037%=      5-min Rain = 0
KDC1 170424Z 18006KT 17/03 A2998 RMK A01 T01720028  RH  038%=      5-min Rain = 0
KDC1 170425Z 18006KT 17/03 A2998 RMK A01 T01720030  RH  039%=      5-min Rain = 0
KDC1 170426Z 18006KT 17/03 A2998 RMK A01 T01720031  RH  039%=      5-min Rain = 0
KDC1 170427Z 18008KT 17/03 A2998 RMK A01 T01710032  RH  039%=      5-min Rain = 0
KDC1 170428Z 19007KT 17/04 A2998 RMK A01 T01710035  RH  040%=      5-min Rain = 0
KDC1 170429Z 19007KT 17/04 A2998 RMK A01 T01710036  RH  041%=      5-min Rain = 0
KDC1 170430Z 19006KT 17/04 A2998 RMK A01 T01700037  RH  041%=      5-min Rain = 0
KDC1 170431Z 20005KT 17/04 A2998 RMK A01 T01700037  RH  041%=      5-min Rain = 0
KDC1 170432Z 20003KT 17/04 A2998 RMK A01 T01700037  RH  041%=      5-min Rain = 0
KDC1 170433Z 21001KT 17/04 A2998 RMK A01 T01690037  RH  041%=      5-min Rain = 0
KDC1 170434Z 32003KT 17/04 A2999 RMK A01 T01690037  RH  041%=      5-min Rain = 0
KDC1 170435Z 36009KT 17/04 A30 RMK A01 T01690036  RH  041%=      5-min Rain = 0
KDC1 170436Z 36011KT 17/03 A30 RMK A01 T01680030  RH  040%=      5-min Rain = 0
KDC1 170437Z 36008KT 17/03 A30 RMK A01 T01650025  RH  039%=      5-min Rain = 0
KDC1 170438Z 00009KT 16/03 A30 RMK A01 T01640028  RH  040%=      5-min Rain = 0
KDC1 170439Z 02010KT 16/04 A30 RMK A01 T01630039  RH  044%=      5-min Rain = 0
KDC1 170440Z 00009KT 16/04 A30 RMK A01 T01640043  RH  045%=      5-min Rain = 0
KDC1 170441Z 02014KT 16/05 A3001 RMK A01 T01640045  RH  045%=      5-min Rain = 0
KDC1 170442Z 02015KT 16/05 A3001 RMK A01 T01640050  RH  047%=      5-min Rain = 0
KDC1 170443Z 02014G19KT 16/05 A3001 RMK A01 T01640051  RH  047%=      5-min Rain = 0
KDC1 170444Z 03014KT 16/05 A3001 RMK A01 T01640053  RH  048%=      5-min Rain = 0
KDC1 170445Z 04017KT 16/05 A3001 RMK A01 T01630054  RH  048%=      5-min Rain = 0
KDC1 170446Z 03016G21KT 16/05 A3001 RMK A01 T01620054  RH  049%=      5-min Rain = 0
KDC1 170447Z 04016G22KT 16/05 A3001 RMK A01 T01610054  RH  049%=      5-min Rain = 0
KDC1 170448Z 04016KT 16/05 A3001 RMK A01 T01610054  RH  049%=      5-min Rain = 0
KDC1 170449Z 05016G24KT 16/05 A3001 RMK A01 T01600053  RH  049%=      5-min Rain = 0
KDC1 170450Z 04018KT 16/05 A3001 RMK A01 T01590053  RH  049%=      5-min Rain = 0
KDC1 170451Z 04020KT 16/05 A3001 RMK A01 T01580052  RH  049%=      5-min Rain = 0
KDC1 170452Z 03017KT 16/05 A3001 RMK A01 T01580051  RH  049%=      5-min Rain = 0
KDC1 170453Z 04020KT 16/05 A3001 RMK A01 T01570051  RH  049%=      5-min Rain = 0
KDC1 170454Z 04020G25KT 16/05 A3001 RMK A01 T01570050  RH  049%=      5-min Rain = 0
KDC1 170455Z 05019G27KT 16/05 A3001 RMK A01 T01570050  RH  049%=      5-min Rain = 0
KDC1 170456Z 05017KT 16/05 A3001 RMK A01 T01560050  RH  049%=      5-min Rain = 0
KDC1 170457Z 05019G24KT 16/05 A3001 RMK A01 T01560050  RH  049%=      5-min Rain = 0
KDC1 170458Z 04020G25KT 16/05 A3001 RMK A01 T01550049  RH  049%=      5-min Rain = 0
KDC1 170459Z 04021G27KT 16/05 A3001 RMK A01 T01550049  RH  049%=      5-min Rain = 0

Page generated in 0.065 seconds.